<?xml version="1.0" encoding="UTF-8" standalone="no" ?>
<gpx xmlns="http://www.topografix.com/GPX/1/1" xmlns:xsi="http://www.w3.org/2001/XMLSchema-instance" xsi:schemaLocation="http://www.topografix.com/GPX/1/1 http://www.topografix.com/GPX/1/1/gpx.xsd" version="1.1" creator="VisuGPX - https://www.visugpx.com">
  <metadata>
    <name>Randonnée Oderen</name>
    <desc><![CDATA[Départ du village Oderen -Uhufels - Trehkopf -Markstein - ferme du Trehkopf- abri Schalm
]]></desc>
  </metadata>
  <trk>
    <name><![CDATA[2016-06-05 16:18:09]]></name>
    <trkseg>
      <trkpt lat="47.91543" lon="6.97387">
        <ele>476.48</ele>
        <time>2016-06-05T07:17:58Z</time>
      </trkpt>
      <trkpt lat="47.91534" lon="6.97398">
        <ele>475.15</ele>
        <time>2016-06-05T07:20:37Z</time>
      </trkpt>
      <trkpt lat="47.91529" lon="6.9742">
        <ele>475.24</ele>
        <time>2016-06-05T07:20:54Z</time>
      </trkpt>
      <trkpt lat="47.91547" lon="6.97429">
        <ele>474.8</ele>
        <time>2016-06-05T07:21:11Z</time>
      </trkpt>
      <trkpt lat="47.91566" lon="6.97429">
        <ele>474.73</ele>
        <time>2016-06-05T07:21:28Z</time>
      </trkpt>
      <trkpt lat="47.91586" lon="6.97433">
        <ele>475.64</ele>
        <time>2016-06-05T07:21:45Z</time>
      </trkpt>
      <trkpt lat="47.91605" lon="6.97438">
        <ele>476.29</ele>
        <time>2016-06-05T07:22:01Z</time>
      </trkpt>
      <trkpt lat="47.91624" lon="6.97437">
        <ele>477.16</ele>
        <time>2016-06-05T07:22:18Z</time>
      </trkpt>
      <trkpt lat="47.9164" lon="6.97445">
        <ele>478.43</ele>
        <time>2016-06-05T07:23:07Z</time>
      </trkpt>
      <trkpt lat="47.91645" lon="6.97453">
        <ele>482.64</ele>
        <time>2016-06-05T07:23:41Z</time>
      </trkpt>
      <trkpt lat="47.91646" lon="6.97471">
        <ele>487.48</ele>
        <time>2016-06-05T07:24:22Z</time>
      </trkpt>
      <trkpt lat="47.91648" lon="6.97479">
        <ele>492.34</ele>
        <time>2016-06-05T07:25:02Z</time>
      </trkpt>
      <trkpt lat="47.91658" lon="6.97489">
        <ele>496.7</ele>
        <time>2016-06-05T07:25:36Z</time>
      </trkpt>
      <trkpt lat="47.91643" lon="6.97515">
        <ele>500.04</ele>
        <time>2016-06-05T07:26:10Z</time>
      </trkpt>
      <trkpt lat="47.91633" lon="6.97544">
        <ele>501.22</ele>
        <time>2016-06-05T07:26:42Z</time>
      </trkpt>
      <trkpt lat="47.91627" lon="6.97538">
        <ele>501.22</ele>
        <time>2016-06-05T07:27:38Z</time>
      </trkpt>
      <trkpt lat="47.91627" lon="6.97545">
        <ele>501.87</ele>
        <time>2016-06-05T07:28:46Z</time>
      </trkpt>
      <trkpt lat="47.91623" lon="6.97586">
        <ele>505.84</ele>
        <time>2016-06-05T07:29:14Z</time>
      </trkpt>
      <trkpt lat="47.91621" lon="6.9761">
        <ele>507.63</ele>
        <time>2016-06-05T07:29:52Z</time>
      </trkpt>
      <trkpt lat="47.91616" lon="6.97606">
        <ele>507.57</ele>
        <time>2016-06-05T07:30:57Z</time>
      </trkpt>
      <trkpt lat="47.91627" lon="6.97603">
        <ele>508.51</ele>
        <time>2016-06-05T07:31:47Z</time>
      </trkpt>
      <trkpt lat="47.91641" lon="6.97585">
        <ele>511.18</ele>
        <time>2016-06-05T07:32:14Z</time>
      </trkpt>
      <trkpt lat="47.91655" lon="6.97561">
        <ele>514.7</ele>
        <time>2016-06-05T07:32:47Z</time>
      </trkpt>
      <trkpt lat="47.91665" lon="6.97569">
        <ele>519.79</ele>
        <time>2016-06-05T07:33:28Z</time>
      </trkpt>
      <trkpt lat="47.91674" lon="6.97545">
        <ele>521.99</ele>
        <time>2016-06-05T07:33:56Z</time>
      </trkpt>
      <trkpt lat="47.91676" lon="6.97573">
        <ele>525.95</ele>
        <time>2016-06-05T07:34:32Z</time>
      </trkpt>
      <trkpt lat="47.91689" lon="6.97558">
        <ele>528.51</ele>
        <time>2016-06-05T07:34:58Z</time>
      </trkpt>
      <trkpt lat="47.91694" lon="6.97565">
        <ele>532.78</ele>
        <time>2016-06-05T07:35:37Z</time>
      </trkpt>
      <trkpt lat="47.91689" lon="6.97593">
        <ele>536.63</ele>
        <time>2016-06-05T07:36:10Z</time>
      </trkpt>
      <trkpt lat="47.91687" lon="6.97615">
        <ele>539.36</ele>
        <time>2016-06-05T07:36:43Z</time>
      </trkpt>
      <trkpt lat="47.917" lon="6.976">
        <ele>542.35</ele>
        <time>2016-06-05T07:37:13Z</time>
      </trkpt>
      <trkpt lat="47.9171" lon="6.97608">
        <ele>547.72</ele>
        <time>2016-06-05T07:37:57Z</time>
      </trkpt>
      <trkpt lat="47.91721" lon="6.97601">
        <ele>551.19</ele>
        <time>2016-06-05T07:38:31Z</time>
      </trkpt>
      <trkpt lat="47.91717" lon="6.97628">
        <ele>554.73</ele>
        <time>2016-06-05T07:39:08Z</time>
      </trkpt>
      <trkpt lat="47.9171" lon="6.97656">
        <ele>558.35</ele>
        <time>2016-06-05T07:39:48Z</time>
      </trkpt>
      <trkpt lat="47.91698" lon="6.97678">
        <ele>560.76</ele>
        <time>2016-06-05T07:40:36Z</time>
      </trkpt>
      <trkpt lat="47.91703" lon="6.97678">
        <ele>560.4</ele>
        <time>2016-06-05T07:41:38Z</time>
      </trkpt>
      <trkpt lat="47.91712" lon="6.97709">
        <ele>564.48</ele>
        <time>2016-06-05T07:42:17Z</time>
      </trkpt>
      <trkpt lat="47.91731" lon="6.97712">
        <ele>567.16</ele>
        <time>2016-06-05T07:42:47Z</time>
      </trkpt>
      <trkpt lat="47.91737" lon="6.97724">
        <ele>572.62</ele>
        <time>2016-06-05T07:43:30Z</time>
      </trkpt>
      <trkpt lat="47.91738" lon="6.97758">
        <ele>577.19</ele>
        <time>2016-06-05T07:44:05Z</time>
      </trkpt>
      <trkpt lat="47.91753" lon="6.97756">
        <ele>581.34</ele>
        <time>2016-06-05T07:44:39Z</time>
      </trkpt>
      <trkpt lat="47.91764" lon="6.97736">
        <ele>584.48</ele>
        <time>2016-06-05T07:45:12Z</time>
      </trkpt>
      <trkpt lat="47.91776" lon="6.97716">
        <ele>587.35</ele>
        <time>2016-06-05T07:45:40Z</time>
      </trkpt>
      <trkpt lat="47.91772" lon="6.9775">
        <ele>591.18</ele>
        <time>2016-06-05T07:46:16Z</time>
      </trkpt>
      <trkpt lat="47.91787" lon="6.97742">
        <ele>594.69</ele>
        <time>2016-06-05T07:46:51Z</time>
      </trkpt>
      <trkpt lat="47.91793" lon="6.97722">
        <ele>599.25</ele>
        <time>2016-06-05T07:47:27Z</time>
      </trkpt>
      <trkpt lat="47.91803" lon="6.97726">
        <ele>604.14</ele>
        <time>2016-06-05T07:48:06Z</time>
      </trkpt>
      <trkpt lat="47.91817" lon="6.97709">
        <ele>608.49</ele>
        <time>2016-06-05T07:48:44Z</time>
      </trkpt>
      <trkpt lat="47.91818" lon="6.97725">
        <ele>612.48</ele>
        <time>2016-06-05T07:49:28Z</time>
      </trkpt>
      <trkpt lat="47.91838" lon="6.9775">
        <ele>617.23</ele>
        <time>2016-06-05T07:50:14Z</time>
      </trkpt>
      <trkpt lat="47.91847" lon="6.97721">
        <ele>620.95</ele>
        <time>2016-06-05T07:50:49Z</time>
      </trkpt>
      <trkpt lat="47.91855" lon="6.9769">
        <ele>623.47</ele>
        <time>2016-06-05T07:51:17Z</time>
      </trkpt>
      <trkpt lat="47.91857" lon="6.97675">
        <ele>627.73</ele>
        <time>2016-06-05T07:51:56Z</time>
      </trkpt>
      <trkpt lat="47.91861" lon="6.97713">
        <ele>630.92</ele>
        <time>2016-06-05T07:52:32Z</time>
      </trkpt>
      <trkpt lat="47.91874" lon="6.97709">
        <ele>636.14</ele>
        <time>2016-06-05T07:53:09Z</time>
      </trkpt>
      <trkpt lat="47.91882" lon="6.97687">
        <ele>640.95</ele>
        <time>2016-06-05T07:53:49Z</time>
      </trkpt>
      <trkpt lat="47.91889" lon="6.977">
        <ele>645.9</ele>
        <time>2016-06-05T07:54:30Z</time>
      </trkpt>
      <trkpt lat="47.91891" lon="6.97663">
        <ele>649.23</ele>
        <time>2016-06-05T07:55:04Z</time>
      </trkpt>
      <trkpt lat="47.91895" lon="6.97631">
        <ele>652.46</ele>
        <time>2016-06-05T07:55:33Z</time>
      </trkpt>
      <trkpt lat="47.919" lon="6.97599">
        <ele>650.99</ele>
        <time>2016-06-05T07:56:05Z</time>
      </trkpt>
      <trkpt lat="47.91885" lon="6.97577">
        <ele>645.43</ele>
        <time>2016-06-05T07:56:41Z</time>
      </trkpt>
      <trkpt lat="47.91889" lon="6.97555">
        <ele>641.88</ele>
        <time>2016-06-05T07:57:34Z</time>
      </trkpt>
      <trkpt lat="47.91888" lon="6.97575">
        <ele>646.25</ele>
        <time>2016-06-05T07:59:24Z</time>
      </trkpt>
      <trkpt lat="47.91893" lon="6.97584">
        <ele>649.2</ele>
        <time>2016-06-05T08:01:23Z</time>
      </trkpt>
      <trkpt lat="47.919" lon="6.97609">
        <ele>655.19</ele>
        <time>2016-06-05T08:01:59Z</time>
      </trkpt>
      <trkpt lat="47.91914" lon="6.97616">
        <ele>656.41</ele>
        <time>2016-06-05T08:02:26Z</time>
      </trkpt>
      <trkpt lat="47.91933" lon="6.97614">
        <ele>658.76</ele>
        <time>2016-06-05T08:02:49Z</time>
      </trkpt>
      <trkpt lat="47.91949" lon="6.97594">
        <ele>658.81</ele>
        <time>2016-06-05T08:03:16Z</time>
      </trkpt>
      <trkpt lat="47.91968" lon="6.97575">
        <ele>661.04</ele>
        <time>2016-06-05T08:03:39Z</time>
      </trkpt>
      <trkpt lat="47.91988" lon="6.97568">
        <ele>664.07</ele>
        <time>2016-06-05T08:04:05Z</time>
      </trkpt>
      <trkpt lat="47.92011" lon="6.97557">
        <ele>663.26</ele>
        <time>2016-06-05T08:04:28Z</time>
      </trkpt>
      <trkpt lat="47.9203" lon="6.97545">
        <ele>664.45</ele>
        <time>2016-06-05T08:04:48Z</time>
      </trkpt>
      <trkpt lat="47.92049" lon="6.97532">
        <ele>663.6</ele>
        <time>2016-06-05T08:05:10Z</time>
      </trkpt>
      <trkpt lat="47.92069" lon="6.97534">
        <ele>664.71</ele>
        <time>2016-06-05T08:05:33Z</time>
      </trkpt>
      <trkpt lat="47.92091" lon="6.97538">
        <ele>662.91</ele>
        <time>2016-06-05T08:05:53Z</time>
      </trkpt>
      <trkpt lat="47.92111" lon="6.97547">
        <ele>666.01</ele>
        <time>2016-06-05T08:06:16Z</time>
      </trkpt>
      <trkpt lat="47.92132" lon="6.9756">
        <ele>667.93</ele>
        <time>2016-06-05T08:06:39Z</time>
      </trkpt>
      <trkpt lat="47.92154" lon="6.97576">
        <ele>670.32</ele>
        <time>2016-06-05T08:07:03Z</time>
      </trkpt>
      <trkpt lat="47.9217" lon="6.97599">
        <ele>670.59</ele>
        <time>2016-06-05T08:07:25Z</time>
      </trkpt>
      <trkpt lat="47.92191" lon="6.97617">
        <ele>673.78</ele>
        <time>2016-06-05T08:07:47Z</time>
      </trkpt>
      <trkpt lat="47.9221" lon="6.97634">
        <ele>674.25</ele>
        <time>2016-06-05T08:08:08Z</time>
      </trkpt>
      <trkpt lat="47.92226" lon="6.97648">
        <ele>676.43</ele>
        <time>2016-06-05T08:08:30Z</time>
      </trkpt>
      <trkpt lat="47.92244" lon="6.97668">
        <ele>679.46</ele>
        <time>2016-06-05T08:08:53Z</time>
      </trkpt>
      <trkpt lat="47.92265" lon="6.97686">
        <ele>681.13</ele>
        <time>2016-06-05T08:09:16Z</time>
      </trkpt>
      <trkpt lat="47.92284" lon="6.97698">
        <ele>679.86</ele>
        <time>2016-06-05T08:09:41Z</time>
      </trkpt>
      <trkpt lat="47.92307" lon="6.97698">
        <ele>680.8</ele>
        <time>2016-06-05T08:10:02Z</time>
      </trkpt>
      <trkpt lat="47.92328" lon="6.97703">
        <ele>680.91</ele>
        <time>2016-06-05T08:10:23Z</time>
      </trkpt>
      <trkpt lat="47.92346" lon="6.97717">
        <ele>680.87</ele>
        <time>2016-06-05T08:10:42Z</time>
      </trkpt>
      <trkpt lat="47.92365" lon="6.97729">
        <ele>683.92</ele>
        <time>2016-06-05T08:11:03Z</time>
      </trkpt>
      <trkpt lat="47.92385" lon="6.97734">
        <ele>687.22</ele>
        <time>2016-06-05T08:11:27Z</time>
      </trkpt>
      <trkpt lat="47.92404" lon="6.97742">
        <ele>692.16</ele>
        <time>2016-06-05T08:11:51Z</time>
      </trkpt>
      <trkpt lat="47.92423" lon="6.9775">
        <ele>692.62</ele>
        <time>2016-06-05T08:12:13Z</time>
      </trkpt>
      <trkpt lat="47.92444" lon="6.97755">
        <ele>695.85</ele>
        <time>2016-06-05T08:12:36Z</time>
      </trkpt>
      <trkpt lat="47.92463" lon="6.97746">
        <ele>697.18</ele>
        <time>2016-06-05T08:12:58Z</time>
      </trkpt>
      <trkpt lat="47.92481" lon="6.97739">
        <ele>700.12</ele>
        <time>2016-06-05T08:13:23Z</time>
      </trkpt>
      <trkpt lat="47.925" lon="6.97728">
        <ele>703.81</ele>
        <time>2016-06-05T08:13:47Z</time>
      </trkpt>
      <trkpt lat="47.92519" lon="6.97715">
        <ele>706.06</ele>
        <time>2016-06-05T08:14:12Z</time>
      </trkpt>
      <trkpt lat="47.92539" lon="6.97702">
        <ele>708.04</ele>
        <time>2016-06-05T08:14:32Z</time>
      </trkpt>
      <trkpt lat="47.92556" lon="6.97684">
        <ele>710.33</ele>
        <time>2016-06-05T08:14:54Z</time>
      </trkpt>
      <trkpt lat="47.92568" lon="6.97658">
        <ele>711.09</ele>
        <time>2016-06-05T08:15:13Z</time>
      </trkpt>
      <trkpt lat="47.92586" lon="6.97643">
        <ele>711.92</ele>
        <time>2016-06-05T08:15:35Z</time>
      </trkpt>
      <trkpt lat="47.92603" lon="6.97623">
        <ele>714.34</ele>
        <time>2016-06-05T08:15:56Z</time>
      </trkpt>
      <trkpt lat="47.92615" lon="6.97599">
        <ele>715.09</ele>
        <time>2016-06-05T08:16:13Z</time>
      </trkpt>
      <trkpt lat="47.92625" lon="6.97572">
        <ele>716.03</ele>
        <time>2016-06-05T08:16:33Z</time>
      </trkpt>
      <trkpt lat="47.92634" lon="6.97548">
        <ele>717.01</ele>
        <time>2016-06-05T08:16:53Z</time>
      </trkpt>
      <trkpt lat="47.92646" lon="6.97527">
        <ele>720.38</ele>
        <time>2016-06-05T08:17:15Z</time>
      </trkpt>
      <trkpt lat="47.92662" lon="6.97509">
        <ele>721.67</ele>
        <time>2016-06-05T08:17:34Z</time>
      </trkpt>
      <trkpt lat="47.9268" lon="6.97494">
        <ele>725.25</ele>
        <time>2016-06-05T08:17:57Z</time>
      </trkpt>
      <trkpt lat="47.92699" lon="6.9749">
        <ele>727.67</ele>
        <time>2016-06-05T08:18:18Z</time>
      </trkpt>
      <trkpt lat="47.92719" lon="6.97485">
        <ele>728.68</ele>
        <time>2016-06-05T08:18:39Z</time>
      </trkpt>
      <trkpt lat="47.92741" lon="6.97484">
        <ele>733.64</ele>
        <time>2016-06-05T08:19:04Z</time>
      </trkpt>
      <trkpt lat="47.92756" lon="6.97463">
        <ele>735.25</ele>
        <time>2016-06-05T08:19:30Z</time>
      </trkpt>
      <trkpt lat="47.92768" lon="6.97469">
        <ele>736.04</ele>
        <time>2016-06-05T08:20:20Z</time>
      </trkpt>
      <trkpt lat="47.92772" lon="6.97457">
        <ele>736.98</ele>
        <time>2016-06-05T08:21:32Z</time>
      </trkpt>
      <trkpt lat="47.92782" lon="6.97477">
        <ele>740.23</ele>
        <time>2016-06-05T08:22:33Z</time>
      </trkpt>
      <trkpt lat="47.92798" lon="6.97494">
        <ele>742.18</ele>
        <time>2016-06-05T08:22:58Z</time>
      </trkpt>
      <trkpt lat="47.92811" lon="6.97522">
        <ele>744.63</ele>
        <time>2016-06-05T08:23:22Z</time>
      </trkpt>
      <trkpt lat="47.92817" lon="6.97556">
        <ele>745.88</ele>
        <time>2016-06-05T08:23:44Z</time>
      </trkpt>
      <trkpt lat="47.92813" lon="6.97594">
        <ele>749.31</ele>
        <time>2016-06-05T08:24:06Z</time>
      </trkpt>
      <trkpt lat="47.92811" lon="6.97627">
        <ele>752.49</ele>
        <time>2016-06-05T08:24:27Z</time>
      </trkpt>
      <trkpt lat="47.92809" lon="6.97658">
        <ele>752.86</ele>
        <time>2016-06-05T08:24:47Z</time>
      </trkpt>
      <trkpt lat="47.92805" lon="6.97691">
        <ele>754.53</ele>
        <time>2016-06-05T08:25:08Z</time>
      </trkpt>
      <trkpt lat="47.92803" lon="6.97722">
        <ele>754.82</ele>
        <time>2016-06-05T08:25:29Z</time>
      </trkpt>
      <trkpt lat="47.92814" lon="6.97754">
        <ele>754.82</ele>
        <time>2016-06-05T08:25:51Z</time>
      </trkpt>
      <trkpt lat="47.92833" lon="6.97788">
        <ele>756.13</ele>
        <time>2016-06-05T08:26:15Z</time>
      </trkpt>
      <trkpt lat="47.92839" lon="6.97809">
        <ele>756.03</ele>
        <time>2016-06-05T08:26:48Z</time>
      </trkpt>
      <trkpt lat="47.92859" lon="6.97825">
        <ele>758.55</ele>
        <time>2016-06-05T08:27:21Z</time>
      </trkpt>
      <trkpt lat="47.92914" lon="6.97854">
        <ele>760.12</ele>
        <time>2016-06-05T08:28:01Z</time>
      </trkpt>
      <trkpt lat="47.92948" lon="6.97867">
        <ele>761.71</ele>
        <time>2016-06-05T08:28:24Z</time>
      </trkpt>
      <trkpt lat="47.92974" lon="6.97884">
        <ele>762.2</ele>
        <time>2016-06-05T08:28:47Z</time>
      </trkpt>
      <trkpt lat="47.92994" lon="6.9789">
        <ele>762.89</ele>
        <time>2016-06-05T08:29:07Z</time>
      </trkpt>
      <trkpt lat="47.93019" lon="6.97891">
        <ele>764.31</ele>
        <time>2016-06-05T08:29:29Z</time>
      </trkpt>
      <trkpt lat="47.93046" lon="6.97889">
        <ele>766.24</ele>
        <time>2016-06-05T08:29:52Z</time>
      </trkpt>
      <trkpt lat="47.93066" lon="6.97884">
        <ele>767.4</ele>
        <time>2016-06-05T08:30:12Z</time>
      </trkpt>
      <trkpt lat="47.93088" lon="6.97883">
        <ele>768.83</ele>
        <time>2016-06-05T08:30:30Z</time>
      </trkpt>
      <trkpt lat="47.93107" lon="6.97885">
        <ele>768.78</ele>
        <time>2016-06-05T08:30:47Z</time>
      </trkpt>
      <trkpt lat="47.93124" lon="6.97896">
        <ele>769.35</ele>
        <time>2016-06-05T08:31:05Z</time>
      </trkpt>
      <trkpt lat="47.93143" lon="6.97909">
        <ele>771.55</ele>
        <time>2016-06-05T08:31:26Z</time>
      </trkpt>
      <trkpt lat="47.93155" lon="6.97936">
        <ele>772.85</ele>
        <time>2016-06-05T08:31:44Z</time>
      </trkpt>
      <trkpt lat="47.93162" lon="6.97964">
        <ele>772.4</ele>
        <time>2016-06-05T08:32:00Z</time>
      </trkpt>
      <trkpt lat="47.93155" lon="6.97991">
        <ele>772.91</ele>
        <time>2016-06-05T08:32:22Z</time>
      </trkpt>
      <trkpt lat="47.93137" lon="6.98014">
        <ele>775.95</ele>
        <time>2016-06-05T08:32:46Z</time>
      </trkpt>
      <trkpt lat="47.93115" lon="6.98034">
        <ele>777.59</ele>
        <time>2016-06-05T08:33:08Z</time>
      </trkpt>
      <trkpt lat="47.93098" lon="6.98052">
        <ele>779.02</ele>
        <time>2016-06-05T08:33:26Z</time>
      </trkpt>
      <trkpt lat="47.93083" lon="6.9807">
        <ele>780.09</ele>
        <time>2016-06-05T08:33:45Z</time>
      </trkpt>
      <trkpt lat="47.93066" lon="6.98084">
        <ele>783.21</ele>
        <time>2016-06-05T08:34:06Z</time>
      </trkpt>
      <trkpt lat="47.9305" lon="6.98097">
        <ele>784.32</ele>
        <time>2016-06-05T08:34:27Z</time>
      </trkpt>
      <trkpt lat="47.93032" lon="6.98106">
        <ele>786.79</ele>
        <time>2016-06-05T08:34:48Z</time>
      </trkpt>
      <trkpt lat="47.93016" lon="6.98117">
        <ele>789.35</ele>
        <time>2016-06-05T08:35:18Z</time>
      </trkpt>
      <trkpt lat="47.92995" lon="6.98126">
        <ele>791.47</ele>
        <time>2016-06-05T08:35:42Z</time>
      </trkpt>
      <trkpt lat="47.9299" lon="6.98118">
        <ele>791.58</ele>
        <time>2016-06-05T08:36:23Z</time>
      </trkpt>
      <trkpt lat="47.92987" lon="6.98125">
        <ele>793.63</ele>
        <time>2016-06-05T08:36:54Z</time>
      </trkpt>
      <trkpt lat="47.92967" lon="6.98126">
        <ele>795.69</ele>
        <time>2016-06-05T08:37:28Z</time>
      </trkpt>
      <trkpt lat="47.92962" lon="6.98135">
        <ele>802.87</ele>
        <time>2016-06-05T08:38:03Z</time>
      </trkpt>
      <trkpt lat="47.92979" lon="6.98148">
        <ele>804.38</ele>
        <time>2016-06-05T08:38:25Z</time>
      </trkpt>
      <trkpt lat="47.92993" lon="6.98172">
        <ele>807.32</ele>
        <time>2016-06-05T08:38:48Z</time>
      </trkpt>
      <trkpt lat="47.92994" lon="6.98197">
        <ele>810.69</ele>
        <time>2016-06-05T08:39:12Z</time>
      </trkpt>
      <trkpt lat="47.92978" lon="6.98181">
        <ele>814.22</ele>
        <time>2016-06-05T08:39:34Z</time>
      </trkpt>
      <trkpt lat="47.92976" lon="6.9821">
        <ele>817.82</ele>
        <time>2016-06-05T08:40:00Z</time>
      </trkpt>
      <trkpt lat="47.92973" lon="6.98238">
        <ele>820.46</ele>
        <time>2016-06-05T08:40:22Z</time>
      </trkpt>
      <trkpt lat="47.92962" lon="6.98228">
        <ele>826.36</ele>
        <time>2016-06-05T08:40:47Z</time>
      </trkpt>
      <trkpt lat="47.92948" lon="6.98213">
        <ele>827.44</ele>
        <time>2016-06-05T08:41:10Z</time>
      </trkpt>
      <trkpt lat="47.92942" lon="6.98211">
        <ele>831.59</ele>
        <time>2016-06-05T08:41:33Z</time>
      </trkpt>
      <trkpt lat="47.92936" lon="6.98236">
        <ele>833.98</ele>
        <time>2016-06-05T08:41:53Z</time>
      </trkpt>
      <trkpt lat="47.92919" lon="6.98243">
        <ele>837.33</ele>
        <time>2016-06-05T08:42:14Z</time>
      </trkpt>
      <trkpt lat="47.92903" lon="6.9825">
        <ele>835.89</ele>
        <time>2016-06-05T08:42:59Z</time>
      </trkpt>
      <trkpt lat="47.92884" lon="6.98254">
        <ele>836.12</ele>
        <time>2016-06-05T08:43:15Z</time>
      </trkpt>
      <trkpt lat="47.92875" lon="6.98246">
        <ele>837.03</ele>
        <time>2016-06-05T08:52:53Z</time>
      </trkpt>
      <trkpt lat="47.92857" lon="6.98241">
        <ele>833.71</ele>
        <time>2016-06-05T08:53:56Z</time>
      </trkpt>
      <trkpt lat="47.92842" lon="6.9825">
        <ele>829.53</ele>
        <time>2016-06-05T08:54:22Z</time>
      </trkpt>
      <trkpt lat="47.92833" lon="6.98272">
        <ele>827.3</ele>
        <time>2016-06-05T08:54:40Z</time>
      </trkpt>
      <trkpt lat="47.92843" lon="6.98292">
        <ele>825.02</ele>
        <time>2016-06-05T08:54:59Z</time>
      </trkpt>
      <trkpt lat="47.92859" lon="6.98306">
        <ele>823.78</ele>
        <time>2016-06-05T08:55:18Z</time>
      </trkpt>
      <trkpt lat="47.92849" lon="6.9831">
        <ele>820.68</ele>
        <time>2016-06-05T08:55:46Z</time>
      </trkpt>
      <trkpt lat="47.92858" lon="6.98326">
        <ele>816.4</ele>
        <time>2016-06-05T08:56:11Z</time>
      </trkpt>
      <trkpt lat="47.92874" lon="6.98343">
        <ele>813.69</ele>
        <time>2016-06-05T08:56:32Z</time>
      </trkpt>
      <trkpt lat="47.92882" lon="6.98363">
        <ele>812.97</ele>
        <time>2016-06-05T08:56:56Z</time>
      </trkpt>
      <trkpt lat="47.9289" lon="6.9837">
        <ele>815.67</ele>
        <time>2016-06-05T08:58:08Z</time>
      </trkpt>
      <trkpt lat="47.92904" lon="6.98385">
        <ele>817.85</ele>
        <time>2016-06-05T08:58:29Z</time>
      </trkpt>
      <trkpt lat="47.92918" lon="6.98398">
        <ele>821.97</ele>
        <time>2016-06-05T08:58:50Z</time>
      </trkpt>
      <trkpt lat="47.92931" lon="6.98416">
        <ele>825.67</ele>
        <time>2016-06-05T08:59:10Z</time>
      </trkpt>
      <trkpt lat="47.9294" lon="6.98435">
        <ele>828.62</ele>
        <time>2016-06-05T08:59:35Z</time>
      </trkpt>
      <trkpt lat="47.92953" lon="6.98448">
        <ele>832.17</ele>
        <time>2016-06-05T09:00:02Z</time>
      </trkpt>
      <trkpt lat="47.92968" lon="6.98467">
        <ele>837.44</ele>
        <time>2016-06-05T09:00:30Z</time>
      </trkpt>
      <trkpt lat="47.92973" lon="6.98491">
        <ele>841.95</ele>
        <time>2016-06-05T09:00:59Z</time>
      </trkpt>
      <trkpt lat="47.92978" lon="6.98518">
        <ele>847.47</ele>
        <time>2016-06-05T09:01:37Z</time>
      </trkpt>
      <trkpt lat="47.92991" lon="6.98556">
        <ele>853.9</ele>
        <time>2016-06-05T09:02:14Z</time>
      </trkpt>
      <trkpt lat="47.93" lon="6.98591">
        <ele>856.49</ele>
        <time>2016-06-05T09:02:39Z</time>
      </trkpt>
      <trkpt lat="47.92993" lon="6.98621">
        <ele>861.95</ele>
        <time>2016-06-05T09:03:14Z</time>
      </trkpt>
      <trkpt lat="47.92991" lon="6.98657">
        <ele>865.45</ele>
        <time>2016-06-05T09:03:46Z</time>
      </trkpt>
      <trkpt lat="47.92981" lon="6.98693">
        <ele>870.11</ele>
        <time>2016-06-05T09:04:18Z</time>
      </trkpt>
      <trkpt lat="47.92971" lon="6.98732">
        <ele>874.87</ele>
        <time>2016-06-05T09:04:45Z</time>
      </trkpt>
      <trkpt lat="47.92967" lon="6.98763">
        <ele>877.84</ele>
        <time>2016-06-05T09:05:07Z</time>
      </trkpt>
      <trkpt lat="47.92962" lon="6.98799">
        <ele>883.36</ele>
        <time>2016-06-05T09:05:34Z</time>
      </trkpt>
      <trkpt lat="47.92945" lon="6.98838">
        <ele>886.86</ele>
        <time>2016-06-05T09:05:57Z</time>
      </trkpt>
      <trkpt lat="47.92934" lon="6.98864">
        <ele>889.94</ele>
        <time>2016-06-05T09:06:22Z</time>
      </trkpt>
      <trkpt lat="47.92916" lon="6.98908">
        <ele>893.79</ele>
        <time>2016-06-05T09:06:47Z</time>
      </trkpt>
      <trkpt lat="47.9291" lon="6.98942">
        <ele>896.16</ele>
        <time>2016-06-05T09:07:14Z</time>
      </trkpt>
      <trkpt lat="47.92919" lon="6.99012">
        <ele>900.89</ele>
        <time>2016-06-05T09:07:45Z</time>
      </trkpt>
      <trkpt lat="47.9292" lon="6.99077">
        <ele>906.87</ele>
        <time>2016-06-05T09:08:13Z</time>
      </trkpt>
      <trkpt lat="47.92905" lon="6.99115">
        <ele>910.55</ele>
        <time>2016-06-05T09:08:39Z</time>
      </trkpt>
      <trkpt lat="47.92885" lon="6.99136">
        <ele>913.59</ele>
        <time>2016-06-05T09:09:03Z</time>
      </trkpt>
      <trkpt lat="47.9288" lon="6.99177">
        <ele>919.71</ele>
        <time>2016-06-05T09:09:31Z</time>
      </trkpt>
      <trkpt lat="47.92891" lon="6.9921">
        <ele>925.83</ele>
        <time>2016-06-05T09:09:59Z</time>
      </trkpt>
      <trkpt lat="47.92905" lon="6.99234">
        <ele>932.42</ele>
        <time>2016-06-05T09:10:24Z</time>
      </trkpt>
      <trkpt lat="47.92917" lon="6.99263">
        <ele>937.66</ele>
        <time>2016-06-05T09:10:50Z</time>
      </trkpt>
      <trkpt lat="47.92932" lon="6.99289">
        <ele>941.66</ele>
        <time>2016-06-05T09:11:19Z</time>
      </trkpt>
      <trkpt lat="47.92929" lon="6.99322">
        <ele>946.97</ele>
        <time>2016-06-05T09:11:51Z</time>
      </trkpt>
      <trkpt lat="47.92927" lon="6.9936">
        <ele>952.94</ele>
        <time>2016-06-05T09:12:22Z</time>
      </trkpt>
      <trkpt lat="47.92931" lon="6.99404">
        <ele>958.33</ele>
        <time>2016-06-05T09:12:52Z</time>
      </trkpt>
      <trkpt lat="47.92935" lon="6.99457">
        <ele>964</ele>
        <time>2016-06-05T09:13:22Z</time>
      </trkpt>
      <trkpt lat="47.9294" lon="6.99459">
        <ele>969.98</ele>
        <time>2016-06-05T09:13:59Z</time>
      </trkpt>
      <trkpt lat="47.92924" lon="6.99433">
        <ele>974.88</ele>
        <time>2016-06-05T09:14:30Z</time>
      </trkpt>
      <trkpt lat="47.92904" lon="6.99411">
        <ele>980.2</ele>
        <time>2016-06-05T09:14:56Z</time>
      </trkpt>
      <trkpt lat="47.92878" lon="6.99386">
        <ele>985.38</ele>
        <time>2016-06-05T09:15:27Z</time>
      </trkpt>
      <trkpt lat="47.92856" lon="6.99368">
        <ele>990.52</ele>
        <time>2016-06-05T09:15:56Z</time>
      </trkpt>
      <trkpt lat="47.92815" lon="6.99356">
        <ele>995.77</ele>
        <time>2016-06-05T09:16:27Z</time>
      </trkpt>
      <trkpt lat="47.92812" lon="6.99387">
        <ele>1002.14</ele>
        <time>2016-06-05T09:16:59Z</time>
      </trkpt>
      <trkpt lat="47.92815" lon="6.99426">
        <ele>1007.37</ele>
        <time>2016-06-05T09:17:29Z</time>
      </trkpt>
      <trkpt lat="47.92816" lon="6.99473">
        <ele>1013.69</ele>
        <time>2016-06-05T09:18:02Z</time>
      </trkpt>
      <trkpt lat="47.92815" lon="6.99503">
        <ele>1019.48</ele>
        <time>2016-06-05T09:18:31Z</time>
      </trkpt>
      <trkpt lat="47.92811" lon="6.99483">
        <ele>1024.19</ele>
        <time>2016-06-05T09:19:00Z</time>
      </trkpt>
      <trkpt lat="47.92802" lon="6.99453">
        <ele>1029.02</ele>
        <time>2016-06-05T09:19:25Z</time>
      </trkpt>
      <trkpt lat="47.92767" lon="6.99465">
        <ele>1034.63</ele>
        <time>2016-06-05T09:19:55Z</time>
      </trkpt>
      <trkpt lat="47.92739" lon="6.99505">
        <ele>1041.1</ele>
        <time>2016-06-05T09:20:31Z</time>
      </trkpt>
      <trkpt lat="47.92726" lon="6.99545">
        <ele>1043.7</ele>
        <time>2016-06-05T09:20:56Z</time>
      </trkpt>
      <trkpt lat="47.92694" lon="6.99592">
        <ele>1045.74</ele>
        <time>2016-06-05T09:21:25Z</time>
      </trkpt>
      <trkpt lat="47.92668" lon="6.99625">
        <ele>1046.07</ele>
        <time>2016-06-05T09:21:54Z</time>
      </trkpt>
      <trkpt lat="47.92654" lon="6.99649">
        <ele>1046.03</ele>
        <time>2016-06-05T09:22:19Z</time>
      </trkpt>
      <trkpt lat="47.92661" lon="6.99654">
        <ele>1046.21</ele>
        <time>2016-06-05T09:23:07Z</time>
      </trkpt>
      <trkpt lat="47.92663" lon="6.99659">
        <ele>1047.15</ele>
        <time>2016-06-05T09:24:35Z</time>
      </trkpt>
      <trkpt lat="47.92659" lon="6.99662">
        <ele>1047.09</ele>
        <time>2016-06-05T09:25:21Z</time>
      </trkpt>
      <trkpt lat="47.92661" lon="6.99648">
        <ele>1047.26</ele>
        <time>2016-06-05T09:26:16Z</time>
      </trkpt>
      <trkpt lat="47.9266" lon="6.9965">
        <ele>1047.33</ele>
        <time>2016-06-05T09:27:17Z</time>
      </trkpt>
      <trkpt lat="47.92667" lon="6.99658">
        <ele>1047.13</ele>
        <time>2016-06-05T09:28:19Z</time>
      </trkpt>
      <trkpt lat="47.9266" lon="6.99664">
        <ele>1047.15</ele>
        <time>2016-06-05T09:28:48Z</time>
      </trkpt>
      <trkpt lat="47.92663" lon="6.99657">
        <ele>1046.96</ele>
        <time>2016-06-05T09:29:29Z</time>
      </trkpt>
      <trkpt lat="47.92659" lon="6.99659">
        <ele>1047.79</ele>
        <time>2016-06-05T09:30:11Z</time>
      </trkpt>
      <trkpt lat="47.92665" lon="6.99643">
        <ele>1047.31</ele>
        <time>2016-06-05T09:31:16Z</time>
      </trkpt>
      <trkpt lat="47.92667" lon="6.99644">
        <ele>1047.22</ele>
        <time>2016-06-05T09:32:18Z</time>
      </trkpt>
      <trkpt lat="47.92662" lon="6.99657">
        <ele>1047.11</ele>
        <time>2016-06-05T09:33:08Z</time>
      </trkpt>
      <trkpt lat="47.92664" lon="6.99651">
        <ele>1047.87</ele>
        <time>2016-06-05T09:34:18Z</time>
      </trkpt>
      <trkpt lat="47.92671" lon="6.99642">
        <ele>1047.49</ele>
        <time>2016-06-05T09:35:23Z</time>
      </trkpt>
      <trkpt lat="47.92668" lon="6.99657">
        <ele>1047.86</ele>
        <time>2016-06-05T09:36:12Z</time>
      </trkpt>
      <trkpt lat="47.92664" lon="6.99662">
        <ele>1047.65</ele>
        <time>2016-06-05T09:37:16Z</time>
      </trkpt>
      <trkpt lat="47.92663" lon="6.99655">
        <ele>1047.95</ele>
        <time>2016-06-05T09:38:43Z</time>
      </trkpt>
      <trkpt lat="47.92654" lon="6.99676">
        <ele>1047.57</ele>
        <time>2016-06-05T09:39:26Z</time>
      </trkpt>
      <trkpt lat="47.92667" lon="6.99663">
        <ele>1047.31</ele>
        <time>2016-06-05T09:40:16Z</time>
      </trkpt>
      <trkpt lat="47.92672" lon="6.99655">
        <ele>1047.31</ele>
        <time>2016-06-05T09:41:03Z</time>
      </trkpt>
      <trkpt lat="47.9266" lon="6.99636">
        <ele>1047.67</ele>
        <time>2016-06-05T09:42:14Z</time>
      </trkpt>
      <trkpt lat="47.92662" lon="6.99639">
        <ele>1048.58</ele>
        <time>2016-06-05T09:43:17Z</time>
      </trkpt>
      <trkpt lat="47.92657" lon="6.99664">
        <ele>1051.52</ele>
        <time>2016-06-05T09:43:44Z</time>
      </trkpt>
      <trkpt lat="47.92649" lon="6.99688">
        <ele>1053.69</ele>
        <time>2016-06-05T09:44:09Z</time>
      </trkpt>
      <trkpt lat="47.92634" lon="6.99723">
        <ele>1058.44</ele>
        <time>2016-06-05T09:44:39Z</time>
      </trkpt>
      <trkpt lat="47.92623" lon="6.99755">
        <ele>1061.88</ele>
        <time>2016-06-05T09:45:13Z</time>
      </trkpt>
      <trkpt lat="47.92624" lon="6.99779">
        <ele>1067.9</ele>
        <time>2016-06-05T09:45:56Z</time>
      </trkpt>
      <trkpt lat="47.92621" lon="6.99807">
        <ele>1072.26</ele>
        <time>2016-06-05T09:46:32Z</time>
      </trkpt>
      <trkpt lat="47.92612" lon="6.99834">
        <ele>1076.1</ele>
        <time>2016-06-05T09:47:01Z</time>
      </trkpt>
      <trkpt lat="47.92602" lon="6.99858">
        <ele>1078.82</ele>
        <time>2016-06-05T09:47:27Z</time>
      </trkpt>
      <trkpt lat="47.92594" lon="6.99886">
        <ele>1082.32</ele>
        <time>2016-06-05T09:48:02Z</time>
      </trkpt>
      <trkpt lat="47.9258" lon="6.99917">
        <ele>1087.01</ele>
        <time>2016-06-05T09:48:36Z</time>
      </trkpt>
      <trkpt lat="47.92571" lon="6.99948">
        <ele>1090.46</ele>
        <time>2016-06-05T09:49:08Z</time>
      </trkpt>
      <trkpt lat="47.92563" lon="6.99979">
        <ele>1093.63</ele>
        <time>2016-06-05T09:49:41Z</time>
      </trkpt>
      <trkpt lat="47.92544" lon="7.00012">
        <ele>1094.47</ele>
        <time>2016-06-05T09:50:15Z</time>
      </trkpt>
      <trkpt lat="47.92541" lon="7.00042">
        <ele>1098.85</ele>
        <time>2016-06-05T09:50:45Z</time>
      </trkpt>
      <trkpt lat="47.92556" lon="7.00027">
        <ele>1102.27</ele>
        <time>2016-06-05T09:51:14Z</time>
      </trkpt>
      <trkpt lat="47.92572" lon="7.00015">
        <ele>1105.26</ele>
        <time>2016-06-05T09:51:40Z</time>
      </trkpt>
      <trkpt lat="47.92571" lon="7.00039">
        <ele>1107.6</ele>
        <time>2016-06-05T09:52:04Z</time>
      </trkpt>
      <trkpt lat="47.92582" lon="7.00061">
        <ele>1109.2</ele>
        <time>2016-06-05T09:52:24Z</time>
      </trkpt>
      <trkpt lat="47.92583" lon="7.00085">
        <ele>1109</ele>
        <time>2016-06-05T09:52:43Z</time>
      </trkpt>
      <trkpt lat="47.92577" lon="7.00112">
        <ele>1109.26</ele>
        <time>2016-06-05T09:53:02Z</time>
      </trkpt>
      <trkpt lat="47.92572" lon="7.00137">
        <ele>1109.53</ele>
        <time>2016-06-05T09:53:20Z</time>
      </trkpt>
      <trkpt lat="47.92564" lon="7.00163">
        <ele>1109.24</ele>
        <time>2016-06-05T09:53:38Z</time>
      </trkpt>
      <trkpt lat="47.92559" lon="7.00189">
        <ele>1110.48</ele>
        <time>2016-06-05T09:53:58Z</time>
      </trkpt>
      <trkpt lat="47.92552" lon="7.00213">
        <ele>1112.34</ele>
        <time>2016-06-05T09:54:34Z</time>
      </trkpt>
      <trkpt lat="47.92545" lon="7.00238">
        <ele>1115.43</ele>
        <time>2016-06-05T09:54:58Z</time>
      </trkpt>
      <trkpt lat="47.9254" lon="7.00261">
        <ele>1118.4</ele>
        <time>2016-06-05T09:55:37Z</time>
      </trkpt>
      <trkpt lat="47.92521" lon="7.00271">
        <ele>1121.15</ele>
        <time>2016-06-05T09:55:56Z</time>
      </trkpt>
      <trkpt lat="47.92507" lon="7.00286">
        <ele>1122.96</ele>
        <time>2016-06-05T09:56:16Z</time>
      </trkpt>
      <trkpt lat="47.92516" lon="7.00302">
        <ele>1125.92</ele>
        <time>2016-06-05T09:57:18Z</time>
      </trkpt>
      <trkpt lat="47.92529" lon="7.00319">
        <ele>1126.14</ele>
        <time>2016-06-05T09:57:38Z</time>
      </trkpt>
      <trkpt lat="47.92532" lon="7.00348">
        <ele>1128.2</ele>
        <time>2016-06-05T09:58:01Z</time>
      </trkpt>
      <trkpt lat="47.92534" lon="7.00377">
        <ele>1129.29</ele>
        <time>2016-06-05T09:58:23Z</time>
      </trkpt>
      <trkpt lat="47.92536" lon="7.00407">
        <ele>1130.89</ele>
        <time>2016-06-05T09:58:41Z</time>
      </trkpt>
      <trkpt lat="47.92536" lon="7.00438">
        <ele>1130.94</ele>
        <time>2016-06-05T09:59:03Z</time>
      </trkpt>
      <trkpt lat="47.92536" lon="7.00471">
        <ele>1131.57</ele>
        <time>2016-06-05T09:59:22Z</time>
      </trkpt>
      <trkpt lat="47.92535" lon="7.00501">
        <ele>1131.23</ele>
        <time>2016-06-05T09:59:40Z</time>
      </trkpt>
      <trkpt lat="47.92535" lon="7.00529">
        <ele>1131.89</ele>
        <time>2016-06-05T10:00:00Z</time>
      </trkpt>
      <trkpt lat="47.9254" lon="7.00554">
        <ele>1131.92</ele>
        <time>2016-06-05T10:00:23Z</time>
      </trkpt>
      <trkpt lat="47.92549" lon="7.0058">
        <ele>1133.18</ele>
        <time>2016-06-05T10:00:45Z</time>
      </trkpt>
      <trkpt lat="47.92551" lon="7.0061">
        <ele>1133.98</ele>
        <time>2016-06-05T10:01:12Z</time>
      </trkpt>
      <trkpt lat="47.9255" lon="7.00638">
        <ele>1134.29</ele>
        <time>2016-06-05T10:01:29Z</time>
      </trkpt>
      <trkpt lat="47.9255" lon="7.00666">
        <ele>1135.09</ele>
        <time>2016-06-05T10:01:47Z</time>
      </trkpt>
      <trkpt lat="47.92547" lon="7.00693">
        <ele>1135.6</ele>
        <time>2016-06-05T10:02:05Z</time>
      </trkpt>
      <trkpt lat="47.92542" lon="7.0072">
        <ele>1136.52</ele>
        <time>2016-06-05T10:02:24Z</time>
      </trkpt>
      <trkpt lat="47.92537" lon="7.00748">
        <ele>1137.08</ele>
        <time>2016-06-05T10:02:41Z</time>
      </trkpt>
      <trkpt lat="47.92531" lon="7.00775">
        <ele>1137.85</ele>
        <time>2016-06-05T10:02:58Z</time>
      </trkpt>
      <trkpt lat="47.92521" lon="7.00799">
        <ele>1138.3</ele>
        <time>2016-06-05T10:03:17Z</time>
      </trkpt>
      <trkpt lat="47.9251" lon="7.0082">
        <ele>1139.7</ele>
        <time>2016-06-05T10:03:37Z</time>
      </trkpt>
      <trkpt lat="47.92496" lon="7.00839">
        <ele>1140.69</ele>
        <time>2016-06-05T10:03:55Z</time>
      </trkpt>
      <trkpt lat="47.9248" lon="7.0085">
        <ele>1140.79</ele>
        <time>2016-06-05T10:04:12Z</time>
      </trkpt>
      <trkpt lat="47.92463" lon="7.00857">
        <ele>1141.93</ele>
        <time>2016-06-05T10:04:28Z</time>
      </trkpt>
      <trkpt lat="47.92445" lon="7.00864">
        <ele>1142.44</ele>
        <time>2016-06-05T10:04:44Z</time>
      </trkpt>
      <trkpt lat="47.92429" lon="7.00874">
        <ele>1143.27</ele>
        <time>2016-06-05T10:04:59Z</time>
      </trkpt>
      <trkpt lat="47.92411" lon="7.0088">
        <ele>1144.23</ele>
        <time>2016-06-05T10:05:18Z</time>
      </trkpt>
      <trkpt lat="47.92393" lon="7.00886">
        <ele>1144.54</ele>
        <time>2016-06-05T10:05:36Z</time>
      </trkpt>
      <trkpt lat="47.92393" lon="7.00893">
        <ele>1145.48</ele>
        <time>2016-06-05T10:06:06Z</time>
      </trkpt>
      <trkpt lat="47.9241" lon="7.00893">
        <ele>1146.61</ele>
        <time>2016-06-05T10:06:23Z</time>
      </trkpt>
      <trkpt lat="47.92429" lon="7.0089">
        <ele>1147.02</ele>
        <time>2016-06-05T10:06:41Z</time>
      </trkpt>
      <trkpt lat="47.92448" lon="7.00886">
        <ele>1147.84</ele>
        <time>2016-06-05T10:07:11Z</time>
      </trkpt>
      <trkpt lat="47.92465" lon="7.00885">
        <ele>1149.25</ele>
        <time>2016-06-05T10:07:26Z</time>
      </trkpt>
      <trkpt lat="47.92483" lon="7.00885">
        <ele>1151.1</ele>
        <time>2016-06-05T10:07:44Z</time>
      </trkpt>
      <trkpt lat="47.925" lon="7.00885">
        <ele>1153.25</ele>
        <time>2016-06-05T10:08:04Z</time>
      </trkpt>
      <trkpt lat="47.92518" lon="7.00879">
        <ele>1156.74</ele>
        <time>2016-06-05T10:08:23Z</time>
      </trkpt>
      <trkpt lat="47.92534" lon="7.00868">
        <ele>1159.18</ele>
        <time>2016-06-05T10:08:45Z</time>
      </trkpt>
      <trkpt lat="47.92551" lon="7.00855">
        <ele>1162.07</ele>
        <time>2016-06-05T10:09:06Z</time>
      </trkpt>
      <trkpt lat="47.92565" lon="7.0084">
        <ele>1165.8</ele>
        <time>2016-06-05T10:09:39Z</time>
      </trkpt>
      <trkpt lat="47.92584" lon="7.00827">
        <ele>1167.06</ele>
        <time>2016-06-05T10:10:01Z</time>
      </trkpt>
      <trkpt lat="47.92598" lon="7.00811">
        <ele>1170.63</ele>
        <time>2016-06-05T10:10:29Z</time>
      </trkpt>
      <trkpt lat="47.92615" lon="7.00799">
        <ele>1174.37</ele>
        <time>2016-06-05T10:10:50Z</time>
      </trkpt>
      <trkpt lat="47.92633" lon="7.00802">
        <ele>1176.91</ele>
        <time>2016-06-05T10:11:10Z</time>
      </trkpt>
      <trkpt lat="47.92647" lon="7.00819">
        <ele>1179.44</ele>
        <time>2016-06-05T10:11:33Z</time>
      </trkpt>
      <trkpt lat="47.92661" lon="7.00836">
        <ele>1181.18</ele>
        <time>2016-06-05T10:11:53Z</time>
      </trkpt>
      <trkpt lat="47.92675" lon="7.00853">
        <ele>1183.29</ele>
        <time>2016-06-05T10:12:15Z</time>
      </trkpt>
      <trkpt lat="47.92674" lon="7.00867">
        <ele>1184.27</ele>
        <time>2016-06-05T10:13:31Z</time>
      </trkpt>
      <trkpt lat="47.92659" lon="7.00853">
        <ele>1182.81</ele>
        <time>2016-06-05T10:13:50Z</time>
      </trkpt>
      <trkpt lat="47.92648" lon="7.00864">
        <ele>1185.01</ele>
        <time>2016-06-05T10:14:15Z</time>
      </trkpt>
      <trkpt lat="47.92644" lon="7.0089">
        <ele>1188.64</ele>
        <time>2016-06-05T10:14:37Z</time>
      </trkpt>
      <trkpt lat="47.92641" lon="7.00915">
        <ele>1193.38</ele>
        <time>2016-06-05T10:15:03Z</time>
      </trkpt>
      <trkpt lat="47.92629" lon="7.00935">
        <ele>1196.67</ele>
        <time>2016-06-05T10:15:26Z</time>
      </trkpt>
      <trkpt lat="47.92622" lon="7.00959">
        <ele>1200.55</ele>
        <time>2016-06-05T10:15:48Z</time>
      </trkpt>
      <trkpt lat="47.92616" lon="7.00986">
        <ele>1203.74</ele>
        <time>2016-06-05T10:16:09Z</time>
      </trkpt>
      <trkpt lat="47.92608" lon="7.01011">
        <ele>1206.79</ele>
        <time>2016-06-05T10:16:28Z</time>
      </trkpt>
      <trkpt lat="47.92603" lon="7.01037">
        <ele>1210.96</ele>
        <time>2016-06-05T10:16:52Z</time>
      </trkpt>
      <trkpt lat="47.92598" lon="7.01063">
        <ele>1216.06</ele>
        <time>2016-06-05T10:17:19Z</time>
      </trkpt>
      <trkpt lat="47.92592" lon="7.01088">
        <ele>1220.08</ele>
        <time>2016-06-05T10:17:42Z</time>
      </trkpt>
      <trkpt lat="47.92587" lon="7.01115">
        <ele>1224.3</ele>
        <time>2016-06-05T10:18:04Z</time>
      </trkpt>
      <trkpt lat="47.92587" lon="7.01142">
        <ele>1228.43</ele>
        <time>2016-06-05T10:18:52Z</time>
      </trkpt>
      <trkpt lat="47.92583" lon="7.01166">
        <ele>1233.67</ele>
        <time>2016-06-05T10:19:17Z</time>
      </trkpt>
      <trkpt lat="47.92579" lon="7.01194">
        <ele>1237.25</ele>
        <time>2016-06-05T10:19:38Z</time>
      </trkpt>
      <trkpt lat="47.92576" lon="7.01221">
        <ele>1241.54</ele>
        <time>2016-06-05T10:20:00Z</time>
      </trkpt>
      <trkpt lat="47.92574" lon="7.01247">
        <ele>1245.4</ele>
        <time>2016-06-05T10:20:22Z</time>
      </trkpt>
      <trkpt lat="47.92575" lon="7.01274">
        <ele>1249.78</ele>
        <time>2016-06-05T10:20:44Z</time>
      </trkpt>
      <trkpt lat="47.92576" lon="7.01299">
        <ele>1252.99</ele>
        <time>2016-06-05T10:21:06Z</time>
      </trkpt>
      <trkpt lat="47.92568" lon="7.01307">
        <ele>1253.03</ele>
        <time>2016-06-05T10:22:34Z</time>
      </trkpt>
      <trkpt lat="47.92558" lon="7.01319">
        <ele>1252.1</ele>
        <time>2016-06-05T10:22:57Z</time>
      </trkpt>
      <trkpt lat="47.92572" lon="7.01314">
        <ele>1254.04</ele>
        <time>2016-06-05T10:23:19Z</time>
      </trkpt>
      <trkpt lat="47.92584" lon="7.01334">
        <ele>1255.16</ele>
        <time>2016-06-05T10:23:36Z</time>
      </trkpt>
      <trkpt lat="47.92595" lon="7.01355">
        <ele>1257.59</ele>
        <time>2016-06-05T10:23:54Z</time>
      </trkpt>
      <trkpt lat="47.92607" lon="7.01375">
        <ele>1259.42</ele>
        <time>2016-06-05T10:24:11Z</time>
      </trkpt>
      <trkpt lat="47.92619" lon="7.01396">
        <ele>1260.68</ele>
        <time>2016-06-05T10:24:28Z</time>
      </trkpt>
      <trkpt lat="47.92631" lon="7.01416">
        <ele>1262.36</ele>
        <time>2016-06-05T10:24:44Z</time>
      </trkpt>
      <trkpt lat="47.92644" lon="7.01437">
        <ele>1263.4</ele>
        <time>2016-06-05T10:25:00Z</time>
      </trkpt>
      <trkpt lat="47.92656" lon="7.01459">
        <ele>1264.64</ele>
        <time>2016-06-05T10:25:16Z</time>
      </trkpt>
      <trkpt lat="47.92664" lon="7.01482">
        <ele>1264.71</ele>
        <time>2016-06-05T10:25:31Z</time>
      </trkpt>
      <trkpt lat="47.92657" lon="7.01506">
        <ele>1265.95</ele>
        <time>2016-06-05T10:25:45Z</time>
      </trkpt>
      <trkpt lat="47.92649" lon="7.01531">
        <ele>1266.57</ele>
        <time>2016-06-05T10:26:00Z</time>
      </trkpt>
      <trkpt lat="47.92641" lon="7.01554">
        <ele>1266.38</ele>
        <time>2016-06-05T10:26:14Z</time>
      </trkpt>
      <trkpt lat="47.92636" lon="7.01581">
        <ele>1267.25</ele>
        <time>2016-06-05T10:26:29Z</time>
      </trkpt>
      <trkpt lat="47.92636" lon="7.01592">
        <ele>1266.42</ele>
        <time>2016-06-05T10:27:41Z</time>
      </trkpt>
      <trkpt lat="47.92636" lon="7.01591">
        <ele>1266.66</ele>
        <time>2016-06-05T10:28:08Z</time>
      </trkpt>
      <trkpt lat="47.92635" lon="7.01619">
        <ele>1265.82</ele>
        <time>2016-06-05T10:28:55Z</time>
      </trkpt>
      <trkpt lat="47.92633" lon="7.01647">
        <ele>1265.48</ele>
        <time>2016-06-05T10:29:11Z</time>
      </trkpt>
      <trkpt lat="47.92632" lon="7.01676">
        <ele>1264.45</ele>
        <time>2016-06-05T10:29:26Z</time>
      </trkpt>
      <trkpt lat="47.92634" lon="7.01704">
        <ele>1263.79</ele>
        <time>2016-06-05T10:29:41Z</time>
      </trkpt>
      <trkpt lat="47.92642" lon="7.01727">
        <ele>1264.44</ele>
        <time>2016-06-05T10:29:57Z</time>
      </trkpt>
      <trkpt lat="47.92652" lon="7.01749">
        <ele>1264.03</ele>
        <time>2016-06-05T10:30:12Z</time>
      </trkpt>
      <trkpt lat="47.92661" lon="7.01771">
        <ele>1263.11</ele>
        <time>2016-06-05T10:30:26Z</time>
      </trkpt>
      <trkpt lat="47.9267" lon="7.01795">
        <ele>1262.16</ele>
        <time>2016-06-05T10:30:40Z</time>
      </trkpt>
      <trkpt lat="47.92676" lon="7.01821">
        <ele>1261.07</ele>
        <time>2016-06-05T10:30:54Z</time>
      </trkpt>
      <trkpt lat="47.9268" lon="7.01847">
        <ele>1259.66</ele>
        <time>2016-06-05T10:31:09Z</time>
      </trkpt>
      <trkpt lat="47.92685" lon="7.01875">
        <ele>1257.35</ele>
        <time>2016-06-05T10:31:25Z</time>
      </trkpt>
      <trkpt lat="47.9269" lon="7.01901">
        <ele>1254.38</ele>
        <time>2016-06-05T10:31:41Z</time>
      </trkpt>
      <trkpt lat="47.92687" lon="7.01928">
        <ele>1251.72</ele>
        <time>2016-06-05T10:32:05Z</time>
      </trkpt>
      <trkpt lat="47.92677" lon="7.0195">
        <ele>1250.76</ele>
        <time>2016-06-05T10:32:20Z</time>
      </trkpt>
      <trkpt lat="47.9267" lon="7.01975">
        <ele>1248.43</ele>
        <time>2016-06-05T10:32:34Z</time>
      </trkpt>
      <trkpt lat="47.92663" lon="7.02001">
        <ele>1246.97</ele>
        <time>2016-06-05T10:32:49Z</time>
      </trkpt>
      <trkpt lat="47.92657" lon="7.02028">
        <ele>1244.02</ele>
        <time>2016-06-05T10:33:04Z</time>
      </trkpt>
      <trkpt lat="47.92651" lon="7.02055">
        <ele>1242.58</ele>
        <time>2016-06-05T10:33:20Z</time>
      </trkpt>
      <trkpt lat="47.92643" lon="7.0208">
        <ele>1239.48</ele>
        <time>2016-06-05T10:33:36Z</time>
      </trkpt>
      <trkpt lat="47.92634" lon="7.02103">
        <ele>1237.3</ele>
        <time>2016-06-05T10:33:51Z</time>
      </trkpt>
      <trkpt lat="47.92622" lon="7.02123">
        <ele>1236.01</ele>
        <time>2016-06-05T10:34:08Z</time>
      </trkpt>
      <trkpt lat="47.92624" lon="7.0215">
        <ele>1237.52</ele>
        <time>2016-06-05T10:34:26Z</time>
      </trkpt>
      <trkpt lat="47.92614" lon="7.02174">
        <ele>1238.15</ele>
        <time>2016-06-05T10:34:43Z</time>
      </trkpt>
      <trkpt lat="47.92607" lon="7.022">
        <ele>1240.91</ele>
        <time>2016-06-05T10:35:02Z</time>
      </trkpt>
      <trkpt lat="47.926" lon="7.02225">
        <ele>1243.36</ele>
        <time>2016-06-05T10:35:22Z</time>
      </trkpt>
      <trkpt lat="47.92593" lon="7.02249">
        <ele>1247.6</ele>
        <time>2016-06-05T10:35:53Z</time>
      </trkpt>
      <trkpt lat="47.92585" lon="7.02274">
        <ele>1252.6</ele>
        <time>2016-06-05T10:36:37Z</time>
      </trkpt>
      <trkpt lat="47.92576" lon="7.02299">
        <ele>1256.14</ele>
        <time>2016-06-05T10:37:00Z</time>
      </trkpt>
      <trkpt lat="47.92569" lon="7.02324">
        <ele>1257.86</ele>
        <time>2016-06-05T10:37:20Z</time>
      </trkpt>
      <trkpt lat="47.92561" lon="7.02349">
        <ele>1256.88</ele>
        <time>2016-06-05T10:37:37Z</time>
      </trkpt>
      <trkpt lat="47.92551" lon="7.02372">
        <ele>1257.16</ele>
        <time>2016-06-05T10:37:54Z</time>
      </trkpt>
      <trkpt lat="47.92545" lon="7.02397">
        <ele>1257.09</ele>
        <time>2016-06-05T10:38:11Z</time>
      </trkpt>
      <trkpt lat="47.92539" lon="7.02422">
        <ele>1256.3</ele>
        <time>2016-06-05T10:38:27Z</time>
      </trkpt>
      <trkpt lat="47.92532" lon="7.02446">
        <ele>1254.42</ele>
        <time>2016-06-05T10:38:52Z</time>
      </trkpt>
      <trkpt lat="47.92526" lon="7.02472">
        <ele>1250.42</ele>
        <time>2016-06-05T10:39:09Z</time>
      </trkpt>
      <trkpt lat="47.92518" lon="7.02498">
        <ele>1247.06</ele>
        <time>2016-06-05T10:39:27Z</time>
      </trkpt>
      <trkpt lat="47.92511" lon="7.02522">
        <ele>1244.1</ele>
        <time>2016-06-05T10:39:44Z</time>
      </trkpt>
      <trkpt lat="47.92505" lon="7.02547">
        <ele>1241.54</ele>
        <time>2016-06-05T10:40:02Z</time>
      </trkpt>
      <trkpt lat="47.92498" lon="7.02572">
        <ele>1238.68</ele>
        <time>2016-06-05T10:40:21Z</time>
      </trkpt>
      <trkpt lat="47.92491" lon="7.02598">
        <ele>1237.2</ele>
        <time>2016-06-05T10:40:38Z</time>
      </trkpt>
      <trkpt lat="47.92483" lon="7.02624">
        <ele>1235.71</ele>
        <time>2016-06-05T10:40:54Z</time>
      </trkpt>
      <trkpt lat="47.92477" lon="7.02649">
        <ele>1234.87</ele>
        <time>2016-06-05T10:41:11Z</time>
      </trkpt>
      <trkpt lat="47.92466" lon="7.02671">
        <ele>1231.23</ele>
        <time>2016-06-05T10:41:30Z</time>
      </trkpt>
      <trkpt lat="47.92455" lon="7.02694">
        <ele>1226.22</ele>
        <time>2016-06-05T10:41:50Z</time>
      </trkpt>
      <trkpt lat="47.92444" lon="7.02717">
        <ele>1221.94</ele>
        <time>2016-06-05T10:42:08Z</time>
      </trkpt>
      <trkpt lat="47.92433" lon="7.02739">
        <ele>1218.96</ele>
        <time>2016-06-05T10:42:27Z</time>
      </trkpt>
      <trkpt lat="47.9242" lon="7.0276">
        <ele>1215.56</ele>
        <time>2016-06-05T10:42:46Z</time>
      </trkpt>
      <trkpt lat="47.92408" lon="7.0278">
        <ele>1211.14</ele>
        <time>2016-06-05T10:43:06Z</time>
      </trkpt>
      <trkpt lat="47.92396" lon="7.02801">
        <ele>1205.94</ele>
        <time>2016-06-05T10:43:31Z</time>
      </trkpt>
      <trkpt lat="47.92397" lon="7.0283">
        <ele>1204.42</ele>
        <time>2016-06-05T10:43:49Z</time>
      </trkpt>
      <trkpt lat="47.92389" lon="7.02857">
        <ele>1202.06</ele>
        <time>2016-06-05T10:44:06Z</time>
      </trkpt>
      <trkpt lat="47.92374" lon="7.02874">
        <ele>1200.26</ele>
        <time>2016-06-05T10:44:28Z</time>
      </trkpt>
      <trkpt lat="47.92369" lon="7.029">
        <ele>1200.67</ele>
        <time>2016-06-05T10:45:16Z</time>
      </trkpt>
      <trkpt lat="47.92362" lon="7.02927">
        <ele>1200.16</ele>
        <time>2016-06-05T10:45:33Z</time>
      </trkpt>
      <trkpt lat="47.92356" lon="7.02952">
        <ele>1199.39</ele>
        <time>2016-06-05T10:45:49Z</time>
      </trkpt>
      <trkpt lat="47.92354" lon="7.02979">
        <ele>1198.69</ele>
        <time>2016-06-05T10:46:08Z</time>
      </trkpt>
      <trkpt lat="47.92363" lon="7.02965">
        <ele>1198.09</ele>
        <time>2016-06-05T10:48:05Z</time>
      </trkpt>
      <trkpt lat="47.92372" lon="7.02958">
        <ele>1199.83</ele>
        <time>2016-06-05T10:49:25Z</time>
      </trkpt>
      <trkpt lat="47.92371" lon="7.02953">
        <ele>1195.98</ele>
        <time>2016-06-05T11:09:19Z</time>
      </trkpt>
      <trkpt lat="47.92372" lon="7.02958">
        <ele>1196.06</ele>
        <time>2016-06-05T11:19:37Z</time>
      </trkpt>
      <trkpt lat="47.92372" lon="7.02955">
        <ele>1198.27</ele>
        <time>2016-06-05T11:33:09Z</time>
      </trkpt>
      <trkpt lat="47.92363" lon="7.02959">
        <ele>1197.53</ele>
        <time>2016-06-05T11:34:22Z</time>
      </trkpt>
      <trkpt lat="47.92367" lon="7.02958">
        <ele>1197.25</ele>
        <time>2016-06-05T11:35:31Z</time>
      </trkpt>
      <trkpt lat="47.92362" lon="7.02958">
        <ele>1196.53</ele>
        <time>2016-06-05T11:37:08Z</time>
      </trkpt>
      <trkpt lat="47.92359" lon="7.02935">
        <ele>1196.86</ele>
        <time>2016-06-05T11:37:27Z</time>
      </trkpt>
      <trkpt lat="47.92368" lon="7.02909">
        <ele>1197.56</ele>
        <time>2016-06-05T11:37:47Z</time>
      </trkpt>
      <trkpt lat="47.92369" lon="7.02874">
        <ele>1197.23</ele>
        <time>2016-06-05T11:38:09Z</time>
      </trkpt>
      <trkpt lat="47.92372" lon="7.02848">
        <ele>1197.51</ele>
        <time>2016-06-05T11:38:25Z</time>
      </trkpt>
      <trkpt lat="47.92375" lon="7.02819">
        <ele>1197.68</ele>
        <time>2016-06-05T11:38:46Z</time>
      </trkpt>
      <trkpt lat="47.9238" lon="7.02794">
        <ele>1200.44</ele>
        <time>2016-06-05T11:39:07Z</time>
      </trkpt>
      <trkpt lat="47.92384" lon="7.02768">
        <ele>1202.44</ele>
        <time>2016-06-05T11:39:43Z</time>
      </trkpt>
      <trkpt lat="47.92386" lon="7.02738">
        <ele>1204.15</ele>
        <time>2016-06-05T11:40:04Z</time>
      </trkpt>
      <trkpt lat="47.92389" lon="7.02711">
        <ele>1206.34</ele>
        <time>2016-06-05T11:40:25Z</time>
      </trkpt>
      <trkpt lat="47.92393" lon="7.02684">
        <ele>1207.39</ele>
        <time>2016-06-05T11:40:45Z</time>
      </trkpt>
      <trkpt lat="47.92396" lon="7.02656">
        <ele>1209.63</ele>
        <time>2016-06-05T11:41:05Z</time>
      </trkpt>
      <trkpt lat="47.92396" lon="7.02627">
        <ele>1211.39</ele>
        <time>2016-06-05T11:41:26Z</time>
      </trkpt>
      <trkpt lat="47.92398" lon="7.02598">
        <ele>1212.56</ele>
        <time>2016-06-05T11:41:48Z</time>
      </trkpt>
      <trkpt lat="47.92398" lon="7.0257">
        <ele>1215.33</ele>
        <time>2016-06-05T11:42:08Z</time>
      </trkpt>
      <trkpt lat="47.92398" lon="7.02542">
        <ele>1217.02</ele>
        <time>2016-06-05T11:42:32Z</time>
      </trkpt>
      <trkpt lat="47.92398" lon="7.02525">
        <ele>1218.2</ele>
        <time>2016-06-05T11:43:38Z</time>
      </trkpt>
      <trkpt lat="47.92399" lon="7.02501">
        <ele>1218.69</ele>
        <time>2016-06-05T11:44:15Z</time>
      </trkpt>
      <trkpt lat="47.92399" lon="7.0247">
        <ele>1220.14</ele>
        <time>2016-06-05T11:44:38Z</time>
      </trkpt>
      <trkpt lat="47.92397" lon="7.02442">
        <ele>1222.42</ele>
        <time>2016-06-05T11:45:03Z</time>
      </trkpt>
      <trkpt lat="47.92398" lon="7.02401">
        <ele>1223.16</ele>
        <time>2016-06-05T11:45:26Z</time>
      </trkpt>
      <trkpt lat="47.92402" lon="7.02365">
        <ele>1222.67</ele>
        <time>2016-06-05T11:45:46Z</time>
      </trkpt>
      <trkpt lat="47.92409" lon="7.02328">
        <ele>1223.33</ele>
        <time>2016-06-05T11:46:05Z</time>
      </trkpt>
      <trkpt lat="47.92419" lon="7.02303">
        <ele>1222.69</ele>
        <time>2016-06-05T11:46:20Z</time>
      </trkpt>
      <trkpt lat="47.9243" lon="7.02279">
        <ele>1222.15</ele>
        <time>2016-06-05T11:46:36Z</time>
      </trkpt>
      <trkpt lat="47.92443" lon="7.02258">
        <ele>1222.35</ele>
        <time>2016-06-05T11:46:52Z</time>
      </trkpt>
      <trkpt lat="47.9246" lon="7.02245">
        <ele>1221.66</ele>
        <time>2016-06-05T11:47:10Z</time>
      </trkpt>
      <trkpt lat="47.92476" lon="7.02231">
        <ele>1222.04</ele>
        <time>2016-06-05T11:47:27Z</time>
      </trkpt>
      <trkpt lat="47.92489" lon="7.02214">
        <ele>1221.39</ele>
        <time>2016-06-05T11:48:04Z</time>
      </trkpt>
      <trkpt lat="47.925" lon="7.02198">
        <ele>1222.01</ele>
        <time>2016-06-05T11:48:21Z</time>
      </trkpt>
      <trkpt lat="47.92515" lon="7.02181">
        <ele>1222.51</ele>
        <time>2016-06-05T11:48:37Z</time>
      </trkpt>
      <trkpt lat="47.92529" lon="7.02162">
        <ele>1222</ele>
        <time>2016-06-05T11:48:54Z</time>
      </trkpt>
      <trkpt lat="47.9254" lon="7.02142">
        <ele>1221.25</ele>
        <time>2016-06-05T11:49:10Z</time>
      </trkpt>
      <trkpt lat="47.92548" lon="7.02118">
        <ele>1219.16</ele>
        <time>2016-06-05T11:49:26Z</time>
      </trkpt>
      <trkpt lat="47.92555" lon="7.02094">
        <ele>1216.93</ele>
        <time>2016-06-05T11:49:42Z</time>
      </trkpt>
      <trkpt lat="47.92556" lon="7.02067">
        <ele>1215.25</ele>
        <time>2016-06-05T11:49:58Z</time>
      </trkpt>
      <trkpt lat="47.9255" lon="7.02041">
        <ele>1214.11</ele>
        <time>2016-06-05T11:50:14Z</time>
      </trkpt>
      <trkpt lat="47.92537" lon="7.02021">
        <ele>1213.03</ele>
        <time>2016-06-05T11:50:31Z</time>
      </trkpt>
      <trkpt lat="47.92525" lon="7.02001">
        <ele>1213.25</ele>
        <time>2016-06-05T11:50:48Z</time>
      </trkpt>
      <trkpt lat="47.9251" lon="7.01978">
        <ele>1213.52</ele>
        <time>2016-06-05T11:51:08Z</time>
      </trkpt>
      <trkpt lat="47.92498" lon="7.01954">
        <ele>1213.99</ele>
        <time>2016-06-05T11:51:25Z</time>
      </trkpt>
      <trkpt lat="47.92488" lon="7.0193">
        <ele>1211.79</ele>
        <time>2016-06-05T11:51:42Z</time>
      </trkpt>
      <trkpt lat="47.9248" lon="7.01903">
        <ele>1208.85</ele>
        <time>2016-06-05T11:51:59Z</time>
      </trkpt>
      <trkpt lat="47.92475" lon="7.01876">
        <ele>1207.11</ele>
        <time>2016-06-05T11:52:17Z</time>
      </trkpt>
      <trkpt lat="47.9248" lon="7.01846">
        <ele>1207.22</ele>
        <time>2016-06-05T11:52:34Z</time>
      </trkpt>
      <trkpt lat="47.9248" lon="7.0182">
        <ele>1208.15</ele>
        <time>2016-06-05T11:53:07Z</time>
      </trkpt>
      <trkpt lat="47.92486" lon="7.01792">
        <ele>1209.6</ele>
        <time>2016-06-05T11:53:28Z</time>
      </trkpt>
      <trkpt lat="47.92492" lon="7.01765">
        <ele>1212.51</ele>
        <time>2016-06-05T11:53:51Z</time>
      </trkpt>
      <trkpt lat="47.92495" lon="7.01734">
        <ele>1212.85</ele>
        <time>2016-06-05T11:54:13Z</time>
      </trkpt>
      <trkpt lat="47.92498" lon="7.01687">
        <ele>1212.22</ele>
        <time>2016-06-05T11:54:41Z</time>
      </trkpt>
      <trkpt lat="47.92501" lon="7.0166">
        <ele>1214.38</ele>
        <time>2016-06-05T11:55:06Z</time>
      </trkpt>
      <trkpt lat="47.92503" lon="7.01628">
        <ele>1213.48</ele>
        <time>2016-06-05T11:55:29Z</time>
      </trkpt>
      <trkpt lat="47.92502" lon="7.01597">
        <ele>1209.32</ele>
        <time>2016-06-05T11:55:54Z</time>
      </trkpt>
      <trkpt lat="47.92509" lon="7.01562">
        <ele>1208.75</ele>
        <time>2016-06-05T11:56:16Z</time>
      </trkpt>
      <trkpt lat="47.9251" lon="7.01522">
        <ele>1204.47</ele>
        <time>2016-06-05T11:56:45Z</time>
      </trkpt>
      <trkpt lat="47.92515" lon="7.01514">
        <ele>1199.71</ele>
        <time>2016-06-05T11:57:15Z</time>
      </trkpt>
      <trkpt lat="47.92512" lon="7.01509">
        <ele>1197.4</ele>
        <time>2016-06-05T11:57:44Z</time>
      </trkpt>
      <trkpt lat="47.9251" lon="7.01497">
        <ele>1196.35</ele>
        <time>2016-06-05T11:58:48Z</time>
      </trkpt>
      <trkpt lat="47.92495" lon="7.01474">
        <ele>1193.24</ele>
        <time>2016-06-05T11:59:08Z</time>
      </trkpt>
      <trkpt lat="47.92482" lon="7.01451">
        <ele>1190.11</ele>
        <time>2016-06-05T11:59:32Z</time>
      </trkpt>
      <trkpt lat="47.92469" lon="7.01432">
        <ele>1186.52</ele>
        <time>2016-06-05T11:59:54Z</time>
      </trkpt>
      <trkpt lat="47.92452" lon="7.01415">
        <ele>1183.09</ele>
        <time>2016-06-05T12:00:14Z</time>
      </trkpt>
      <trkpt lat="47.92434" lon="7.01404">
        <ele>1181.02</ele>
        <time>2016-06-05T12:00:35Z</time>
      </trkpt>
      <trkpt lat="47.92414" lon="7.01393">
        <ele>1176.56</ele>
        <time>2016-06-05T12:00:58Z</time>
      </trkpt>
      <trkpt lat="47.92396" lon="7.01375">
        <ele>1173.37</ele>
        <time>2016-06-05T12:01:18Z</time>
      </trkpt>
      <trkpt lat="47.92379" lon="7.01347">
        <ele>1170.37</ele>
        <time>2016-06-05T12:01:43Z</time>
      </trkpt>
      <trkpt lat="47.92364" lon="7.0132">
        <ele>1168.92</ele>
        <time>2016-06-05T12:02:05Z</time>
      </trkpt>
      <trkpt lat="47.92351" lon="7.01285">
        <ele>1166.51</ele>
        <time>2016-06-05T12:02:29Z</time>
      </trkpt>
      <trkpt lat="47.92349" lon="7.0125">
        <ele>1165.19</ele>
        <time>2016-06-05T12:02:50Z</time>
      </trkpt>
      <trkpt lat="47.92348" lon="7.01209">
        <ele>1165.44</ele>
        <time>2016-06-05T12:03:08Z</time>
      </trkpt>
      <trkpt lat="47.92354" lon="7.01178">
        <ele>1165.15</ele>
        <time>2016-06-05T12:03:25Z</time>
      </trkpt>
      <trkpt lat="47.92356" lon="7.01146">
        <ele>1163.53</ele>
        <time>2016-06-05T12:03:43Z</time>
      </trkpt>
      <trkpt lat="47.92359" lon="7.01118">
        <ele>1163.18</ele>
        <time>2016-06-05T12:04:00Z</time>
      </trkpt>
      <trkpt lat="47.9236" lon="7.01086">
        <ele>1162.03</ele>
        <time>2016-06-05T12:04:18Z</time>
      </trkpt>
      <trkpt lat="47.92361" lon="7.01056">
        <ele>1161.16</ele>
        <time>2016-06-05T12:04:35Z</time>
      </trkpt>
      <trkpt lat="47.9236" lon="7.01028">
        <ele>1159.13</ele>
        <time>2016-06-05T12:04:53Z</time>
      </trkpt>
      <trkpt lat="47.92356" lon="7.01001">
        <ele>1156.71</ele>
        <time>2016-06-05T12:05:11Z</time>
      </trkpt>
      <trkpt lat="47.92347" lon="7.00975">
        <ele>1154.51</ele>
        <time>2016-06-05T12:05:29Z</time>
      </trkpt>
      <trkpt lat="47.92334" lon="7.00956">
        <ele>1151.34</ele>
        <time>2016-06-05T12:05:48Z</time>
      </trkpt>
      <trkpt lat="47.92316" lon="7.00933">
        <ele>1149.35</ele>
        <time>2016-06-05T12:06:09Z</time>
      </trkpt>
      <trkpt lat="47.92313" lon="7.00911">
        <ele>1148.2</ele>
        <time>2016-06-05T12:06:42Z</time>
      </trkpt>
      <trkpt lat="47.92326" lon="7.00904">
        <ele>1147.5</ele>
        <time>2016-06-05T12:07:48Z</time>
      </trkpt>
      <trkpt lat="47.92342" lon="7.00894">
        <ele>1147.19</ele>
        <time>2016-06-05T12:08:12Z</time>
      </trkpt>
      <trkpt lat="47.92352" lon="7.00886">
        <ele>1146.81</ele>
        <time>2016-06-05T12:08:37Z</time>
      </trkpt>
      <trkpt lat="47.92351" lon="7.00877">
        <ele>1146.77</ele>
        <time>2016-06-05T12:09:14Z</time>
      </trkpt>
      <trkpt lat="47.92349" lon="7.00901">
        <ele>1146.9</ele>
        <time>2016-06-05T12:09:36Z</time>
      </trkpt>
      <trkpt lat="47.92332" lon="7.00912">
        <ele>1147</ele>
        <time>2016-06-05T12:09:59Z</time>
      </trkpt>
      <trkpt lat="47.92314" lon="7.009">
        <ele>1146.56</ele>
        <time>2016-06-05T12:10:20Z</time>
      </trkpt>
      <trkpt lat="47.92308" lon="7.00892">
        <ele>1146.59</ele>
        <time>2016-06-05T12:12:10Z</time>
      </trkpt>
      <trkpt lat="47.92304" lon="7.00892">
        <ele>1146.3</ele>
        <time>2016-06-05T12:13:41Z</time>
      </trkpt>
      <trkpt lat="47.92304" lon="7.00889">
        <ele>1146.9</ele>
        <time>2016-06-05T12:15:43Z</time>
      </trkpt>
      <trkpt lat="47.92304" lon="7.00888">
        <ele>1146.48</ele>
        <time>2016-06-05T12:17:28Z</time>
      </trkpt>
      <trkpt lat="47.9228" lon="7.00885">
        <ele>1142.73</ele>
        <time>2016-06-05T12:18:02Z</time>
      </trkpt>
      <trkpt lat="47.92269" lon="7.00863">
        <ele>1138.34</ele>
        <time>2016-06-05T12:18:29Z</time>
      </trkpt>
      <trkpt lat="47.92256" lon="7.00842">
        <ele>1133.29</ele>
        <time>2016-06-05T12:18:54Z</time>
      </trkpt>
      <trkpt lat="47.9224" lon="7.00827">
        <ele>1127.67</ele>
        <time>2016-06-05T12:19:14Z</time>
      </trkpt>
      <trkpt lat="47.92226" lon="7.00811">
        <ele>1121.93</ele>
        <time>2016-06-05T12:19:36Z</time>
      </trkpt>
      <trkpt lat="47.92207" lon="7.00807">
        <ele>1117.54</ele>
        <time>2016-06-05T12:20:00Z</time>
      </trkpt>
      <trkpt lat="47.92188" lon="7.00802">
        <ele>1116.57</ele>
        <time>2016-06-05T12:20:25Z</time>
      </trkpt>
      <trkpt lat="47.92168" lon="7.00797">
        <ele>1112</ele>
        <time>2016-06-05T12:20:49Z</time>
      </trkpt>
      <trkpt lat="47.92146" lon="7.00782">
        <ele>1108.07</ele>
        <time>2016-06-05T12:21:19Z</time>
      </trkpt>
      <trkpt lat="47.92122" lon="7.00774">
        <ele>1105.19</ele>
        <time>2016-06-05T12:21:43Z</time>
      </trkpt>
      <trkpt lat="47.92104" lon="7.0076">
        <ele>1101.58</ele>
        <time>2016-06-05T12:22:10Z</time>
      </trkpt>
      <trkpt lat="47.92073" lon="7.00749">
        <ele>1098.61</ele>
        <time>2016-06-05T12:22:36Z</time>
      </trkpt>
      <trkpt lat="47.92046" lon="7.00743">
        <ele>1095.12</ele>
        <time>2016-06-05T12:23:08Z</time>
      </trkpt>
      <trkpt lat="47.92023" lon="7.00736">
        <ele>1092.51</ele>
        <time>2016-06-05T12:23:31Z</time>
      </trkpt>
      <trkpt lat="47.91995" lon="7.00723">
        <ele>1088.59</ele>
        <time>2016-06-05T12:23:57Z</time>
      </trkpt>
      <trkpt lat="47.91973" lon="7.00699">
        <ele>1086.38</ele>
        <time>2016-06-05T12:24:25Z</time>
      </trkpt>
      <trkpt lat="47.9195" lon="7.00692">
        <ele>1083.01</ele>
        <time>2016-06-05T12:24:50Z</time>
      </trkpt>
      <trkpt lat="47.91906" lon="7.00675">
        <ele>1078.62</ele>
        <time>2016-06-05T12:25:24Z</time>
      </trkpt>
      <trkpt lat="47.91884" lon="7.0066">
        <ele>1076.41</ele>
        <time>2016-06-05T12:25:47Z</time>
      </trkpt>
      <trkpt lat="47.91871" lon="7.00638">
        <ele>1072.59</ele>
        <time>2016-06-05T12:26:10Z</time>
      </trkpt>
      <trkpt lat="47.91866" lon="7.00602">
        <ele>1071.67</ele>
        <time>2016-06-05T12:26:37Z</time>
      </trkpt>
      <trkpt lat="47.91867" lon="7.00564">
        <ele>1068.98</ele>
        <time>2016-06-05T12:26:59Z</time>
      </trkpt>
      <trkpt lat="47.9187" lon="7.00529">
        <ele>1066.05</ele>
        <time>2016-06-05T12:27:28Z</time>
      </trkpt>
      <trkpt lat="47.91871" lon="7.00497">
        <ele>1059.68</ele>
        <time>2016-06-05T12:28:01Z</time>
      </trkpt>
      <trkpt lat="47.91854" lon="7.00486">
        <ele>1055.87</ele>
        <time>2016-06-05T12:28:37Z</time>
      </trkpt>
      <trkpt lat="47.91817" lon="7.00477">
        <ele>1051.34</ele>
        <time>2016-06-05T12:29:05Z</time>
      </trkpt>
      <trkpt lat="47.91801" lon="7.00454">
        <ele>1048.32</ele>
        <time>2016-06-05T12:29:32Z</time>
      </trkpt>
      <trkpt lat="47.91777" lon="7.00441">
        <ele>1045.87</ele>
        <time>2016-06-05T12:30:00Z</time>
      </trkpt>
      <trkpt lat="47.91767" lon="7.00416">
        <ele>1041.94</ele>
        <time>2016-06-05T12:30:27Z</time>
      </trkpt>
      <trkpt lat="47.91742" lon="7.00402">
        <ele>1038.59</ele>
        <time>2016-06-05T12:30:52Z</time>
      </trkpt>
      <trkpt lat="47.91711" lon="7.00399">
        <ele>1034.66</ele>
        <time>2016-06-05T12:31:22Z</time>
      </trkpt>
      <trkpt lat="47.91694" lon="7.00392">
        <ele>1030.42</ele>
        <time>2016-06-05T12:31:51Z</time>
      </trkpt>
      <trkpt lat="47.91669" lon="7.00377">
        <ele>1026.99</ele>
        <time>2016-06-05T12:32:17Z</time>
      </trkpt>
      <trkpt lat="47.91648" lon="7.0037">
        <ele>1024.6</ele>
        <time>2016-06-05T12:32:43Z</time>
      </trkpt>
      <trkpt lat="47.91617" lon="7.00352">
        <ele>1020.67</ele>
        <time>2016-06-05T12:33:13Z</time>
      </trkpt>
      <trkpt lat="47.91599" lon="7.0034">
        <ele>1017.09</ele>
        <time>2016-06-05T12:33:38Z</time>
      </trkpt>
      <trkpt lat="47.91578" lon="7.00318">
        <ele>1014.24</ele>
        <time>2016-06-05T12:34:05Z</time>
      </trkpt>
      <trkpt lat="47.91565" lon="7.00294">
        <ele>1010.47</ele>
        <time>2016-06-05T12:34:31Z</time>
      </trkpt>
      <trkpt lat="47.91567" lon="7.00295">
        <ele>1011.06</ele>
        <time>2016-06-05T12:35:16Z</time>
      </trkpt>
      <trkpt lat="47.91552" lon="7.00299">
        <ele>1011.24</ele>
        <time>2016-06-05T12:35:59Z</time>
      </trkpt>
      <trkpt lat="47.91564" lon="7.0027">
        <ele>1010.96</ele>
        <time>2016-06-05T12:36:46Z</time>
      </trkpt>
      <trkpt lat="47.91557" lon="7.00262">
        <ele>1012.56</ele>
        <time>2016-06-05T12:37:37Z</time>
      </trkpt>
      <trkpt lat="47.9155" lon="7.00276">
        <ele>1011.65</ele>
        <time>2016-06-05T12:38:18Z</time>
      </trkpt>
      <trkpt lat="47.91553" lon="7.00274">
        <ele>1011.28</ele>
        <time>2016-06-05T12:39:10Z</time>
      </trkpt>
      <trkpt lat="47.91552" lon="7.0028">
        <ele>1011.51</ele>
        <time>2016-06-05T12:40:11Z</time>
      </trkpt>
      <trkpt lat="47.91542" lon="7.00268">
        <ele>1009.79</ele>
        <time>2016-06-05T12:40:45Z</time>
      </trkpt>
      <trkpt lat="47.91531" lon="7.00244">
        <ele>1005.41</ele>
        <time>2016-06-05T12:41:08Z</time>
      </trkpt>
      <trkpt lat="47.91512" lon="7.00233">
        <ele>1001.51</ele>
        <time>2016-06-05T12:41:37Z</time>
      </trkpt>
      <trkpt lat="47.91491" lon="7.00229">
        <ele>997.22</ele>
        <time>2016-06-05T12:42:07Z</time>
      </trkpt>
      <trkpt lat="47.91465" lon="7.00231">
        <ele>993.75</ele>
        <time>2016-06-05T12:42:34Z</time>
      </trkpt>
      <trkpt lat="47.91429" lon="7.00235">
        <ele>989.56</ele>
        <time>2016-06-05T12:43:09Z</time>
      </trkpt>
      <trkpt lat="47.914" lon="7.00233">
        <ele>986.08</ele>
        <time>2016-06-05T12:43:38Z</time>
      </trkpt>
      <trkpt lat="47.91381" lon="7.00222">
        <ele>982.37</ele>
        <time>2016-06-05T12:44:06Z</time>
      </trkpt>
      <trkpt lat="47.9136" lon="7.0022">
        <ele>977.42</ele>
        <time>2016-06-05T12:44:39Z</time>
      </trkpt>
      <trkpt lat="47.91337" lon="7.00198">
        <ele>971.99</ele>
        <time>2016-06-05T12:45:10Z</time>
      </trkpt>
      <trkpt lat="47.91289" lon="7.00151">
        <ele>966.62</ele>
        <time>2016-06-05T12:45:55Z</time>
      </trkpt>
      <trkpt lat="47.91264" lon="7.00134">
        <ele>962.05</ele>
        <time>2016-06-05T12:46:22Z</time>
      </trkpt>
      <trkpt lat="47.9124" lon="7.00127">
        <ele>958.1</ele>
        <time>2016-06-05T12:46:54Z</time>
      </trkpt>
      <trkpt lat="47.91216" lon="7.0012">
        <ele>953.8</ele>
        <time>2016-06-05T12:47:23Z</time>
      </trkpt>
      <trkpt lat="47.91177" lon="7.00098">
        <ele>949.44</ele>
        <time>2016-06-05T12:48:01Z</time>
      </trkpt>
      <trkpt lat="47.91144" lon="7.00082">
        <ele>944.75</ele>
        <time>2016-06-05T12:48:36Z</time>
      </trkpt>
      <trkpt lat="47.91113" lon="7.001">
        <ele>941.57</ele>
        <time>2016-06-05T12:49:08Z</time>
      </trkpt>
      <trkpt lat="47.91091" lon="7.00104">
        <ele>938.28</ele>
        <time>2016-06-05T12:49:33Z</time>
      </trkpt>
      <trkpt lat="47.91078" lon="7.00122">
        <ele>935.84</ele>
        <time>2016-06-05T12:49:55Z</time>
      </trkpt>
      <trkpt lat="47.91063" lon="7.0014">
        <ele>932.56</ele>
        <time>2016-06-05T12:50:20Z</time>
      </trkpt>
      <trkpt lat="47.91044" lon="7.00145">
        <ele>929.47</ele>
        <time>2016-06-05T12:50:45Z</time>
      </trkpt>
      <trkpt lat="47.91025" lon="7.00148">
        <ele>925.35</ele>
        <time>2016-06-05T12:51:12Z</time>
      </trkpt>
      <trkpt lat="47.90995" lon="7.00138">
        <ele>920.03</ele>
        <time>2016-06-05T12:51:46Z</time>
      </trkpt>
      <trkpt lat="47.90982" lon="7.00089">
        <ele>915.79</ele>
        <time>2016-06-05T12:52:21Z</time>
      </trkpt>
      <trkpt lat="47.90962" lon="7.00073">
        <ele>911.52</ele>
        <time>2016-06-05T12:52:45Z</time>
      </trkpt>
      <trkpt lat="47.90955" lon="7.00042">
        <ele>908.28</ele>
        <time>2016-06-05T12:53:10Z</time>
      </trkpt>
      <trkpt lat="47.90945" lon="7.00018">
        <ele>906.58</ele>
        <time>2016-06-05T12:53:33Z</time>
      </trkpt>
      <trkpt lat="47.90954" lon="6.99971">
        <ele>902.38</ele>
        <time>2016-06-05T12:54:18Z</time>
      </trkpt>
      <trkpt lat="47.90957" lon="6.99946">
        <ele>899.52</ele>
        <time>2016-06-05T12:54:51Z</time>
      </trkpt>
      <trkpt lat="47.90961" lon="6.9991">
        <ele>895.08</ele>
        <time>2016-06-05T12:55:17Z</time>
      </trkpt>
      <trkpt lat="47.90973" lon="6.99875">
        <ele>892.25</ele>
        <time>2016-06-05T12:55:42Z</time>
      </trkpt>
      <trkpt lat="47.90989" lon="6.99854">
        <ele>887.41</ele>
        <time>2016-06-05T12:56:17Z</time>
      </trkpt>
      <trkpt lat="47.90992" lon="6.99879">
        <ele>883.16</ele>
        <time>2016-06-05T12:56:48Z</time>
      </trkpt>
      <trkpt lat="47.91006" lon="6.9991">
        <ele>879.66</ele>
        <time>2016-06-05T12:57:18Z</time>
      </trkpt>
      <trkpt lat="47.91009" lon="6.99947">
        <ele>875.57</ele>
        <time>2016-06-05T12:57:47Z</time>
      </trkpt>
      <trkpt lat="47.91019" lon="6.99956">
        <ele>873.26</ele>
        <time>2016-06-05T12:58:36Z</time>
      </trkpt>
      <trkpt lat="47.91035" lon="6.99937">
        <ele>868.87</ele>
        <time>2016-06-05T12:59:08Z</time>
      </trkpt>
      <trkpt lat="47.91061" lon="6.99884">
        <ele>864.98</ele>
        <time>2016-06-05T12:59:39Z</time>
      </trkpt>
      <trkpt lat="47.9109" lon="6.9986">
        <ele>861.08</ele>
        <time>2016-06-05T13:00:04Z</time>
      </trkpt>
      <trkpt lat="47.91116" lon="6.99846">
        <ele>857.2</ele>
        <time>2016-06-05T13:00:32Z</time>
      </trkpt>
      <trkpt lat="47.91129" lon="6.99832">
        <ele>855.05</ele>
        <time>2016-06-05T13:00:59Z</time>
      </trkpt>
      <trkpt lat="47.91151" lon="6.9982">
        <ele>851.4</ele>
        <time>2016-06-05T13:01:26Z</time>
      </trkpt>
      <trkpt lat="47.91183" lon="6.99804">
        <ele>848.32</ele>
        <time>2016-06-05T13:01:55Z</time>
      </trkpt>
      <trkpt lat="47.91198" lon="6.99801">
        <ele>845.19</ele>
        <time>2016-06-05T13:02:26Z</time>
      </trkpt>
      <trkpt lat="47.91173" lon="6.99804">
        <ele>838.2</ele>
        <time>2016-06-05T13:03:08Z</time>
      </trkpt>
      <trkpt lat="47.91151" lon="6.99798">
        <ele>835.07</ele>
        <time>2016-06-05T13:03:37Z</time>
      </trkpt>
      <trkpt lat="47.91127" lon="6.99808">
        <ele>832.06</ele>
        <time>2016-06-05T13:04:08Z</time>
      </trkpt>
      <trkpt lat="47.9112" lon="6.99803">
        <ele>833.56</ele>
        <time>2016-06-05T13:04:39Z</time>
      </trkpt>
      <trkpt lat="47.91111" lon="6.99771">
        <ele>834.55</ele>
        <time>2016-06-05T13:05:29Z</time>
      </trkpt>
      <trkpt lat="47.91114" lon="6.9979">
        <ele>835.48</ele>
        <time>2016-06-05T13:06:02Z</time>
      </trkpt>
      <trkpt lat="47.91104" lon="6.99772">
        <ele>837.25</ele>
        <time>2016-06-05T13:06:46Z</time>
      </trkpt>
      <trkpt lat="47.91103" lon="6.99773">
        <ele>836.71</ele>
        <time>2016-06-05T13:07:20Z</time>
      </trkpt>
      <trkpt lat="47.91105" lon="6.9978">
        <ele>836.83</ele>
        <time>2016-06-05T13:08:09Z</time>
      </trkpt>
      <trkpt lat="47.91131" lon="6.99751">
        <ele>832.94</ele>
        <time>2016-06-05T13:08:43Z</time>
      </trkpt>
      <trkpt lat="47.91133" lon="6.99771">
        <ele>830.49</ele>
        <time>2016-06-05T13:09:25Z</time>
      </trkpt>
      <trkpt lat="47.91122" lon="6.99769">
        <ele>824.19</ele>
        <time>2016-06-05T13:10:05Z</time>
      </trkpt>
      <trkpt lat="47.91107" lon="6.9972">
        <ele>819.47</ele>
        <time>2016-06-05T13:10:54Z</time>
      </trkpt>
      <trkpt lat="47.91164" lon="6.99698">
        <ele>815.18</ele>
        <time>2016-06-05T13:11:40Z</time>
      </trkpt>
      <trkpt lat="47.91168" lon="6.99663">
        <ele>813.12</ele>
        <time>2016-06-05T13:12:07Z</time>
      </trkpt>
      <trkpt lat="47.91206" lon="6.9965">
        <ele>811.72</ele>
        <time>2016-06-05T13:12:32Z</time>
      </trkpt>
      <trkpt lat="47.91217" lon="6.99623">
        <ele>808.26</ele>
        <time>2016-06-05T13:12:56Z</time>
      </trkpt>
      <trkpt lat="47.91221" lon="6.99591">
        <ele>805.75</ele>
        <time>2016-06-05T13:13:19Z</time>
      </trkpt>
      <trkpt lat="47.91233" lon="6.99569">
        <ele>805.68</ele>
        <time>2016-06-05T13:13:42Z</time>
      </trkpt>
      <trkpt lat="47.91248" lon="6.99548">
        <ele>804.34</ele>
        <time>2016-06-05T13:14:10Z</time>
      </trkpt>
      <trkpt lat="47.91256" lon="6.99516">
        <ele>802.43</ele>
        <time>2016-06-05T13:14:32Z</time>
      </trkpt>
      <trkpt lat="47.9125" lon="6.99497">
        <ele>801.25</ele>
        <time>2016-06-05T13:14:51Z</time>
      </trkpt>
      <trkpt lat="47.91233" lon="6.99441">
        <ele>799.7</ele>
        <time>2016-06-05T13:15:22Z</time>
      </trkpt>
      <trkpt lat="47.91234" lon="6.99412">
        <ele>795.56</ele>
        <time>2016-06-05T13:15:48Z</time>
      </trkpt>
      <trkpt lat="47.91228" lon="6.99364">
        <ele>790.52</ele>
        <time>2016-06-05T13:16:18Z</time>
      </trkpt>
      <trkpt lat="47.91211" lon="6.99335">
        <ele>788.75</ele>
        <time>2016-06-05T13:16:40Z</time>
      </trkpt>
      <trkpt lat="47.91217" lon="6.99307">
        <ele>786.14</ele>
        <time>2016-06-05T13:16:59Z</time>
      </trkpt>
      <trkpt lat="47.9122" lon="6.99303">
        <ele>784.48</ele>
        <time>2016-06-05T13:17:41Z</time>
      </trkpt>
      <trkpt lat="47.91213" lon="6.99281">
        <ele>785.41</ele>
        <time>2016-06-05T13:18:11Z</time>
      </trkpt>
      <trkpt lat="47.91205" lon="6.99274">
        <ele>781.37</ele>
        <time>2016-06-05T13:18:54Z</time>
      </trkpt>
      <trkpt lat="47.91209" lon="6.99281">
        <ele>782.09</ele>
        <time>2016-06-05T13:19:42Z</time>
      </trkpt>
      <trkpt lat="47.91213" lon="6.99278">
        <ele>780.59</ele>
        <time>2016-06-05T13:20:49Z</time>
      </trkpt>
      <trkpt lat="47.91216" lon="6.99281">
        <ele>780.19</ele>
        <time>2016-06-05T13:21:34Z</time>
      </trkpt>
      <trkpt lat="47.91217" lon="6.99276">
        <ele>778.71</ele>
        <time>2016-06-05T13:22:37Z</time>
      </trkpt>
      <trkpt lat="47.91214" lon="6.99284">
        <ele>775.58</ele>
        <time>2016-06-05T13:24:18Z</time>
      </trkpt>
      <trkpt lat="47.91207" lon="6.99298">
        <ele>772.91</ele>
        <time>2016-06-05T13:24:46Z</time>
      </trkpt>
      <trkpt lat="47.91195" lon="6.99289">
        <ele>767.05</ele>
        <time>2016-06-05T13:25:22Z</time>
      </trkpt>
      <trkpt lat="47.91179" lon="6.99278">
        <ele>762.14</ele>
        <time>2016-06-05T13:25:55Z</time>
      </trkpt>
      <trkpt lat="47.91158" lon="6.99267">
        <ele>756.97</ele>
        <time>2016-06-05T13:26:21Z</time>
      </trkpt>
      <trkpt lat="47.91139" lon="6.99259">
        <ele>751.62</ele>
        <time>2016-06-05T13:26:46Z</time>
      </trkpt>
      <trkpt lat="47.91116" lon="6.99252">
        <ele>746.59</ele>
        <time>2016-06-05T13:27:09Z</time>
      </trkpt>
      <trkpt lat="47.91086" lon="6.99245">
        <ele>740.8</ele>
        <time>2016-06-05T13:27:31Z</time>
      </trkpt>
      <trkpt lat="47.91061" lon="6.99239">
        <ele>736.42</ele>
        <time>2016-06-05T13:27:54Z</time>
      </trkpt>
      <trkpt lat="47.91039" lon="6.9923">
        <ele>731.2</ele>
        <time>2016-06-05T13:28:16Z</time>
      </trkpt>
      <trkpt lat="47.91021" lon="6.99223">
        <ele>724.37</ele>
        <time>2016-06-05T13:28:40Z</time>
      </trkpt>
      <trkpt lat="47.91007" lon="6.99213">
        <ele>719.57</ele>
        <time>2016-06-05T13:29:19Z</time>
      </trkpt>
      <trkpt lat="47.9098" lon="6.99209">
        <ele>714.85</ele>
        <time>2016-06-05T13:29:42Z</time>
      </trkpt>
      <trkpt lat="47.90962" lon="6.99208">
        <ele>708.93</ele>
        <time>2016-06-05T13:30:02Z</time>
      </trkpt>
      <trkpt lat="47.90943" lon="6.99209">
        <ele>703.89</ele>
        <time>2016-06-05T13:30:21Z</time>
      </trkpt>
      <trkpt lat="47.90923" lon="6.9921">
        <ele>699.66</ele>
        <time>2016-06-05T13:30:42Z</time>
      </trkpt>
      <trkpt lat="47.90907" lon="6.99194">
        <ele>696.72</ele>
        <time>2016-06-05T13:31:19Z</time>
      </trkpt>
      <trkpt lat="47.90903" lon="6.99174">
        <ele>691.37</ele>
        <time>2016-06-05T13:31:55Z</time>
      </trkpt>
      <trkpt lat="47.90916" lon="6.9915">
        <ele>685.6</ele>
        <time>2016-06-05T13:32:22Z</time>
      </trkpt>
      <trkpt lat="47.90927" lon="6.99127">
        <ele>682</ele>
        <time>2016-06-05T13:32:43Z</time>
      </trkpt>
      <trkpt lat="47.90938" lon="6.9911">
        <ele>677.9</ele>
        <time>2016-06-05T13:33:05Z</time>
      </trkpt>
      <trkpt lat="47.90932" lon="6.99116">
        <ele>673.43</ele>
        <time>2016-06-05T13:33:35Z</time>
      </trkpt>
      <trkpt lat="47.90928" lon="6.99107">
        <ele>670.91</ele>
        <time>2016-06-05T13:34:16Z</time>
      </trkpt>
      <trkpt lat="47.90928" lon="6.99097">
        <ele>670.99</ele>
        <time>2016-06-05T13:35:29Z</time>
      </trkpt>
      <trkpt lat="47.90927" lon="6.99105">
        <ele>669.45</ele>
        <time>2016-06-05T13:36:54Z</time>
      </trkpt>
      <trkpt lat="47.90905" lon="6.99095">
        <ele>666.33</ele>
        <time>2016-06-05T13:37:22Z</time>
      </trkpt>
      <trkpt lat="47.90888" lon="6.99088">
        <ele>662.74</ele>
        <time>2016-06-05T13:37:51Z</time>
      </trkpt>
      <trkpt lat="47.90867" lon="6.99088">
        <ele>658.02</ele>
        <time>2016-06-05T13:38:27Z</time>
      </trkpt>
      <trkpt lat="47.90856" lon="6.99065">
        <ele>656.76</ele>
        <time>2016-06-05T13:38:54Z</time>
      </trkpt>
      <trkpt lat="47.90851" lon="6.99027">
        <ele>652.2</ele>
        <time>2016-06-05T13:39:16Z</time>
      </trkpt>
      <trkpt lat="47.90845" lon="6.98985">
        <ele>649.89</ele>
        <time>2016-06-05T13:39:42Z</time>
      </trkpt>
      <trkpt lat="47.90842" lon="6.98966">
        <ele>648.89</ele>
        <time>2016-06-05T13:40:23Z</time>
      </trkpt>
      <trkpt lat="47.90858" lon="6.98951">
        <ele>648.18</ele>
        <time>2016-06-05T13:40:52Z</time>
      </trkpt>
      <trkpt lat="47.90864" lon="6.98926">
        <ele>643.44</ele>
        <time>2016-06-05T13:41:14Z</time>
      </trkpt>
      <trkpt lat="47.90868" lon="6.9889">
        <ele>640.84</ele>
        <time>2016-06-05T13:41:35Z</time>
      </trkpt>
      <trkpt lat="47.90875" lon="6.98866">
        <ele>638.45</ele>
        <time>2016-06-05T13:41:53Z</time>
      </trkpt>
      <trkpt lat="47.90875" lon="6.98834">
        <ele>635.96</ele>
        <time>2016-06-05T13:42:10Z</time>
      </trkpt>
      <trkpt lat="47.90874" lon="6.98807">
        <ele>635.04</ele>
        <time>2016-06-05T13:42:32Z</time>
      </trkpt>
      <trkpt lat="47.90886" lon="6.9878">
        <ele>631.21</ele>
        <time>2016-06-05T13:42:54Z</time>
      </trkpt>
      <trkpt lat="47.90896" lon="6.98753">
        <ele>628.46</ele>
        <time>2016-06-05T13:43:15Z</time>
      </trkpt>
      <trkpt lat="47.90908" lon="6.98731">
        <ele>624.44</ele>
        <time>2016-06-05T13:43:35Z</time>
      </trkpt>
      <trkpt lat="47.90922" lon="6.9871">
        <ele>621.82</ele>
        <time>2016-06-05T13:43:52Z</time>
      </trkpt>
      <trkpt lat="47.9094" lon="6.98693">
        <ele>618.1</ele>
        <time>2016-06-05T13:44:14Z</time>
      </trkpt>
      <trkpt lat="47.90956" lon="6.98676">
        <ele>614.01</ele>
        <time>2016-06-05T13:44:34Z</time>
      </trkpt>
      <trkpt lat="47.90969" lon="6.9865">
        <ele>608.63</ele>
        <time>2016-06-05T13:44:57Z</time>
      </trkpt>
      <trkpt lat="47.90985" lon="6.98623">
        <ele>603.66</ele>
        <time>2016-06-05T13:45:17Z</time>
      </trkpt>
      <trkpt lat="47.90996" lon="6.98593">
        <ele>599.33</ele>
        <time>2016-06-05T13:45:37Z</time>
      </trkpt>
      <trkpt lat="47.91007" lon="6.98563">
        <ele>594.63</ele>
        <time>2016-06-05T13:45:59Z</time>
      </trkpt>
      <trkpt lat="47.90998" lon="6.98532">
        <ele>588.65</ele>
        <time>2016-06-05T13:46:23Z</time>
      </trkpt>
      <trkpt lat="47.90997" lon="6.98501">
        <ele>583.95</ele>
        <time>2016-06-05T13:46:45Z</time>
      </trkpt>
      <trkpt lat="47.91" lon="6.98485">
        <ele>582.73</ele>
        <time>2016-06-05T13:47:26Z</time>
      </trkpt>
      <trkpt lat="47.91009" lon="6.98457">
        <ele>577.5</ele>
        <time>2016-06-05T13:47:46Z</time>
      </trkpt>
      <trkpt lat="47.91019" lon="6.9843">
        <ele>575.27</ele>
        <time>2016-06-05T13:48:06Z</time>
      </trkpt>
      <trkpt lat="47.9103" lon="6.98413">
        <ele>573.09</ele>
        <time>2016-06-05T13:48:33Z</time>
      </trkpt>
      <trkpt lat="47.9103" lon="6.9839">
        <ele>570.19</ele>
        <time>2016-06-05T13:49:04Z</time>
      </trkpt>
      <trkpt lat="47.91033" lon="6.98384">
        <ele>568.88</ele>
        <time>2016-06-05T13:49:58Z</time>
      </trkpt>
      <trkpt lat="47.91037" lon="6.98371">
        <ele>567.39</ele>
        <time>2016-06-05T13:50:56Z</time>
      </trkpt>
      <trkpt lat="47.91037" lon="6.98357">
        <ele>563.94</ele>
        <time>2016-06-05T13:51:53Z</time>
      </trkpt>
      <trkpt lat="47.91028" lon="6.98332">
        <ele>560.58</ele>
        <time>2016-06-05T13:52:23Z</time>
      </trkpt>
      <trkpt lat="47.91026" lon="6.98303">
        <ele>556.69</ele>
        <time>2016-06-05T13:52:51Z</time>
      </trkpt>
      <trkpt lat="47.91028" lon="6.9828">
        <ele>555.26</ele>
        <time>2016-06-05T13:53:21Z</time>
      </trkpt>
      <trkpt lat="47.91021" lon="6.98251">
        <ele>552.66</ele>
        <time>2016-06-05T13:53:47Z</time>
      </trkpt>
      <trkpt lat="47.91025" lon="6.98228">
        <ele>550.71</ele>
        <time>2016-06-05T13:54:10Z</time>
      </trkpt>
      <trkpt lat="47.91029" lon="6.98197">
        <ele>547.48</ele>
        <time>2016-06-05T13:54:38Z</time>
      </trkpt>
      <trkpt lat="47.91033" lon="6.98174">
        <ele>546.02</ele>
        <time>2016-06-05T13:55:01Z</time>
      </trkpt>
      <trkpt lat="47.91036" lon="6.98148">
        <ele>541.69</ele>
        <time>2016-06-05T13:55:21Z</time>
      </trkpt>
      <trkpt lat="47.91048" lon="6.98132">
        <ele>540.32</ele>
        <time>2016-06-05T13:55:47Z</time>
      </trkpt>
      <trkpt lat="47.91051" lon="6.98106">
        <ele>537.23</ele>
        <time>2016-06-05T13:56:32Z</time>
      </trkpt>
      <trkpt lat="47.91051" lon="6.98081">
        <ele>534.29</ele>
        <time>2016-06-05T13:56:53Z</time>
      </trkpt>
      <trkpt lat="47.9106" lon="6.98049">
        <ele>531.69</ele>
        <time>2016-06-05T13:57:21Z</time>
      </trkpt>
      <trkpt lat="47.91062" lon="6.98019">
        <ele>530.04</ele>
        <time>2016-06-05T13:57:42Z</time>
      </trkpt>
      <trkpt lat="47.91059" lon="6.97991">
        <ele>527.39</ele>
        <time>2016-06-05T13:58:11Z</time>
      </trkpt>
      <trkpt lat="47.91056" lon="6.9796">
        <ele>524.94</ele>
        <time>2016-06-05T13:58:29Z</time>
      </trkpt>
      <trkpt lat="47.91042" lon="6.97939">
        <ele>520.84</ele>
        <time>2016-06-05T13:58:48Z</time>
      </trkpt>
      <trkpt lat="47.91032" lon="6.9791">
        <ele>519.04</ele>
        <time>2016-06-05T13:59:16Z</time>
      </trkpt>
      <trkpt lat="47.91024" lon="6.97886">
        <ele>515.86</ele>
        <time>2016-06-05T13:59:40Z</time>
      </trkpt>
      <trkpt lat="47.91021" lon="6.97876">
        <ele>514.06</ele>
        <time>2016-06-05T14:00:54Z</time>
      </trkpt>
      <trkpt lat="47.9101" lon="6.97851">
        <ele>509.97</ele>
        <time>2016-06-05T14:01:21Z</time>
      </trkpt>
      <trkpt lat="47.90999" lon="6.9783">
        <ele>507.87</ele>
        <time>2016-06-05T14:01:48Z</time>
      </trkpt>
      <trkpt lat="47.90994" lon="6.97801">
        <ele>502.77</ele>
        <time>2016-06-05T14:02:12Z</time>
      </trkpt>
      <trkpt lat="47.90983" lon="6.97781">
        <ele>499.54</ele>
        <time>2016-06-05T14:02:43Z</time>
      </trkpt>
      <trkpt lat="47.90972" lon="6.97764">
        <ele>494.15</ele>
        <time>2016-06-05T14:03:01Z</time>
      </trkpt>
      <trkpt lat="47.90976" lon="6.97743">
        <ele>491.31</ele>
        <time>2016-06-05T14:03:23Z</time>
      </trkpt>
      <trkpt lat="47.90972" lon="6.97711">
        <ele>489.2</ele>
        <time>2016-06-05T14:03:44Z</time>
      </trkpt>
      <trkpt lat="47.90972" lon="6.97681">
        <ele>486.66</ele>
        <time>2016-06-05T14:04:18Z</time>
      </trkpt>
      <trkpt lat="47.90972" lon="6.9765">
        <ele>484.69</ele>
        <time>2016-06-05T14:04:39Z</time>
      </trkpt>
      <trkpt lat="47.90964" lon="6.97625">
        <ele>483.75</ele>
        <time>2016-06-05T14:04:58Z</time>
      </trkpt>
      <trkpt lat="47.90943" lon="6.97612">
        <ele>482.73</ele>
        <time>2016-06-05T14:05:20Z</time>
      </trkpt>
      <trkpt lat="47.9093" lon="6.97593">
        <ele>483.73</ele>
        <time>2016-06-05T14:05:46Z</time>
      </trkpt>
      <trkpt lat="47.90927" lon="6.97585">
        <ele>483.16</ele>
        <time>2016-06-05T14:06:29Z</time>
      </trkpt>
      <trkpt lat="47.90927" lon="6.97572">
        <ele>481.78</ele>
        <time>2016-06-05T14:07:31Z</time>
      </trkpt>
      <trkpt lat="47.90942" lon="6.97554">
        <ele>482.19</ele>
        <time>2016-06-05T14:07:58Z</time>
      </trkpt>
      <trkpt lat="47.90962" lon="6.97546">
        <ele>482.27</ele>
        <time>2016-06-05T14:08:20Z</time>
      </trkpt>
      <trkpt lat="47.90978" lon="6.97533">
        <ele>482.46</ele>
        <time>2016-06-05T14:08:54Z</time>
      </trkpt>
      <trkpt lat="47.90996" lon="6.97521">
        <ele>484.31</ele>
        <time>2016-06-05T14:09:13Z</time>
      </trkpt>
      <trkpt lat="47.91026" lon="6.97513">
        <ele>484.44</ele>
        <time>2016-06-05T14:09:37Z</time>
      </trkpt>
      <trkpt lat="47.91049" lon="6.97503">
        <ele>485.67</ele>
        <time>2016-06-05T14:10:00Z</time>
      </trkpt>
      <trkpt lat="47.91065" lon="6.97496">
        <ele>486.05</ele>
        <time>2016-06-05T14:10:19Z</time>
      </trkpt>
      <trkpt lat="47.91093" lon="6.9749">
        <ele>485.67</ele>
        <time>2016-06-05T14:10:43Z</time>
      </trkpt>
      <trkpt lat="47.91111" lon="6.97484">
        <ele>485.92</ele>
        <time>2016-06-05T14:11:01Z</time>
      </trkpt>
      <trkpt lat="47.9113" lon="6.97476">
        <ele>487</ele>
        <time>2016-06-05T14:11:20Z</time>
      </trkpt>
      <trkpt lat="47.91183" lon="6.97473">
        <ele>486.62</ele>
        <time>2016-06-05T14:12:00Z</time>
      </trkpt>
      <trkpt lat="47.91206" lon="6.97456">
        <ele>488.14</ele>
        <time>2016-06-05T14:12:23Z</time>
      </trkpt>
      <trkpt lat="47.91229" lon="6.97449">
        <ele>487.07</ele>
        <time>2016-06-05T14:12:43Z</time>
      </trkpt>
      <trkpt lat="47.91253" lon="6.97439">
        <ele>486.5</ele>
        <time>2016-06-05T14:13:05Z</time>
      </trkpt>
      <trkpt lat="47.91286" lon="6.97433">
        <ele>486.65</ele>
        <time>2016-06-05T14:13:29Z</time>
      </trkpt>
      <trkpt lat="47.91309" lon="6.97429">
        <ele>486.21</ele>
        <time>2016-06-05T14:13:49Z</time>
      </trkpt>
      <trkpt lat="47.91335" lon="6.97416">
        <ele>485.48</ele>
        <time>2016-06-05T14:14:13Z</time>
      </trkpt>
      <trkpt lat="47.91358" lon="6.97415">
        <ele>485.2</ele>
        <time>2016-06-05T14:14:33Z</time>
      </trkpt>
      <trkpt lat="47.91399" lon="6.97419">
        <ele>485.21</ele>
        <time>2016-06-05T14:15:03Z</time>
      </trkpt>
      <trkpt lat="47.91416" lon="6.97408">
        <ele>485.28</ele>
        <time>2016-06-05T14:15:21Z</time>
      </trkpt>
      <trkpt lat="47.91474" lon="6.97405">
        <ele>484.37</ele>
        <time>2016-06-05T14:16:06Z</time>
      </trkpt>
      <trkpt lat="47.91493" lon="6.97398">
        <ele>484.45</ele>
        <time>2016-06-05T14:16:25Z</time>
      </trkpt>
      <trkpt lat="47.91508" lon="6.97393">
        <ele>484.37</ele>
        <time>2016-06-05T14:16:46Z</time>
      </trkpt>
      <trkpt lat="47.91531" lon="6.97386">
        <ele>485.12</ele>
        <time>2016-06-05T14:17:06Z</time>
      </trkpt>
      <trkpt lat="47.91547" lon="6.97386">
        <ele>484.18</ele>
        <time>2016-06-05T14:17:36Z</time>
      </trkpt>
    </trkseg>
  </trk>
</gpx>